<?xml version="1.0" encoding="UTF-8" standalone="no" ?>
<gpx xmlns="http://www.topografix.com/GPX/1/1" xmlns:xsi="http://www.w3.org/2001/XMLSchema-instance" xsi:schemaLocation="http://www.topografix.com/GPX/1/1 http://www.topografix.com/GPX/1/1/gpx.xsd" version="1.1" creator="VisuGPX - https://www.visugpx.com">
  <metadata>
    <name>RSPFY-Garnes-Senlisse-Malvoisine</name>
    <desc><![CDATA[boucle au départ du parking des cascades près de Cernay passant par Garnes, Senlisse et le haras de Malvoisine.
(à faire en été par temps sec)]]></desc>
  </metadata>
  <trk>
    <name><![CDATA[2025-06-19 08:38]]></name>
    <desc><![CDATA[<p>Heure de départ: 08:38 19 juin 2025<br/>Heure d'arrivée: 11:38 19 juin 2025<br/>Distance: 12,2 km (03:00)<br/>Temps déplacement: 02:36<br/>Vitesse moyenne: 4,05 km/h<br/>Vitesse moyenne mouv.: 4,67 km/h<br/>Vitesse Max.: 6,88 km/h<br/>Altitude minimale: 94 m<br/>Altitude maximale: 182 m<br/>Vitesse de montée: 177,6 m/h<br/>Vitesse de descente: -192,2 m/h<br/>Gain d'altitude: 277 m<br/>Perte d'altitude: -274 m<br/>Temps de montée: 01:33<br/>Temps de descente: 01:25<br/></p><hr align="center" width="480" style="height: 2px; width: 517px"/>]]></desc>
    <trkseg>
      <trkpt lat="48.6788" lon="1.96613">
        <ele>114.6</ele>
        <time>2025-06-19T06:38:11Z</time>
      </trkpt>
      <trkpt lat="48.6789" lon="1.96617">
        <ele>113.9</ele>
        <time>2025-06-19T06:38:55Z</time>
      </trkpt>
      <trkpt lat="48.679" lon="1.96617">
        <ele>113.2</ele>
        <time>2025-06-19T06:39:03Z</time>
      </trkpt>
      <trkpt lat="48.67909" lon="1.96617">
        <ele>112.4</ele>
        <time>2025-06-19T06:39:10Z</time>
      </trkpt>
      <trkpt lat="48.67918" lon="1.96612">
        <ele>111.8</ele>
        <time>2025-06-19T06:39:17Z</time>
      </trkpt>
      <trkpt lat="48.67929" lon="1.96611">
        <ele>111.1</ele>
        <time>2025-06-19T06:39:24Z</time>
      </trkpt>
      <trkpt lat="48.67938" lon="1.96614">
        <ele>110.3</ele>
        <time>2025-06-19T06:39:31Z</time>
      </trkpt>
      <trkpt lat="48.67949" lon="1.96614">
        <ele>109.6</ele>
        <time>2025-06-19T06:39:38Z</time>
      </trkpt>
      <trkpt lat="48.6795" lon="1.966">
        <ele>109.6</ele>
        <time>2025-06-19T06:39:58Z</time>
      </trkpt>
      <trkpt lat="48.67946" lon="1.96587">
        <ele>109.9</ele>
        <time>2025-06-19T06:40:09Z</time>
      </trkpt>
      <trkpt lat="48.67941" lon="1.96575">
        <ele>110</ele>
        <time>2025-06-19T06:40:25Z</time>
      </trkpt>
      <trkpt lat="48.67935" lon="1.96564">
        <ele>110</ele>
        <time>2025-06-19T06:40:34Z</time>
      </trkpt>
      <trkpt lat="48.67926" lon="1.96558">
        <ele>110.4</ele>
        <time>2025-06-19T06:40:42Z</time>
      </trkpt>
      <trkpt lat="48.67918" lon="1.96554">
        <ele>110.6</ele>
        <time>2025-06-19T06:40:50Z</time>
      </trkpt>
      <trkpt lat="48.67909" lon="1.9656">
        <ele>111.7</ele>
        <time>2025-06-19T06:40:59Z</time>
      </trkpt>
      <trkpt lat="48.67901" lon="1.96568">
        <ele>112.5</ele>
        <time>2025-06-19T06:41:07Z</time>
      </trkpt>
      <trkpt lat="48.67892" lon="1.96564">
        <ele>113.1</ele>
        <time>2025-06-19T06:41:14Z</time>
      </trkpt>
      <trkpt lat="48.67883" lon="1.96565">
        <ele>113.5</ele>
        <time>2025-06-19T06:41:22Z</time>
      </trkpt>
      <trkpt lat="48.67873" lon="1.96566">
        <ele>113.9</ele>
        <time>2025-06-19T06:41:30Z</time>
      </trkpt>
      <trkpt lat="48.67865" lon="1.96557">
        <ele>113.9</ele>
        <time>2025-06-19T06:41:38Z</time>
      </trkpt>
      <trkpt lat="48.67856" lon="1.96552">
        <ele>114.2</ele>
        <time>2025-06-19T06:41:47Z</time>
      </trkpt>
      <trkpt lat="48.67847" lon="1.96549">
        <ele>114.7</ele>
        <time>2025-06-19T06:41:55Z</time>
      </trkpt>
      <trkpt lat="48.67838" lon="1.96546">
        <ele>115.2</ele>
        <time>2025-06-19T06:42:04Z</time>
      </trkpt>
      <trkpt lat="48.6783" lon="1.96535">
        <ele>114.3</ele>
        <time>2025-06-19T06:42:13Z</time>
      </trkpt>
      <trkpt lat="48.67822" lon="1.9653">
        <ele>114.1</ele>
        <time>2025-06-19T06:42:21Z</time>
      </trkpt>
      <trkpt lat="48.67812" lon="1.96528">
        <ele>114.6</ele>
        <time>2025-06-19T06:42:30Z</time>
      </trkpt>
      <trkpt lat="48.67803" lon="1.96527">
        <ele>115</ele>
        <time>2025-06-19T06:42:41Z</time>
      </trkpt>
      <trkpt lat="48.67794" lon="1.96516">
        <ele>113.5</ele>
        <time>2025-06-19T06:42:48Z</time>
      </trkpt>
      <trkpt lat="48.67787" lon="1.96507">
        <ele>112.4</ele>
        <time>2025-06-19T06:42:55Z</time>
      </trkpt>
      <trkpt lat="48.67788" lon="1.96493">
        <ele>111.1</ele>
        <time>2025-06-19T06:43:05Z</time>
      </trkpt>
      <trkpt lat="48.67782" lon="1.96482">
        <ele>110.8</ele>
        <time>2025-06-19T06:43:16Z</time>
      </trkpt>
      <trkpt lat="48.67773" lon="1.96485">
        <ele>111.3</ele>
        <time>2025-06-19T06:43:22Z</time>
      </trkpt>
      <trkpt lat="48.67763" lon="1.96487">
        <ele>112.1</ele>
        <time>2025-06-19T06:43:31Z</time>
      </trkpt>
      <trkpt lat="48.67753" lon="1.96488">
        <ele>112.9</ele>
        <time>2025-06-19T06:43:38Z</time>
      </trkpt>
      <trkpt lat="48.67744" lon="1.96483">
        <ele>113.3</ele>
        <time>2025-06-19T06:43:45Z</time>
      </trkpt>
      <trkpt lat="48.67739" lon="1.9647">
        <ele>112.7</ele>
        <time>2025-06-19T06:43:51Z</time>
      </trkpt>
      <trkpt lat="48.67739" lon="1.96456">
        <ele>112</ele>
        <time>2025-06-19T06:43:57Z</time>
      </trkpt>
      <trkpt lat="48.67739" lon="1.96441">
        <ele>111.5</ele>
        <time>2025-06-19T06:44:04Z</time>
      </trkpt>
      <trkpt lat="48.67745" lon="1.96431">
        <ele>111.9</ele>
        <time>2025-06-19T06:44:11Z</time>
      </trkpt>
      <trkpt lat="48.6775" lon="1.9642">
        <ele>112.8</ele>
        <time>2025-06-19T06:44:22Z</time>
      </trkpt>
      <trkpt lat="48.67746" lon="1.96407">
        <ele>114.6</ele>
        <time>2025-06-19T06:44:33Z</time>
      </trkpt>
      <trkpt lat="48.67738" lon="1.96398">
        <ele>115.1</ele>
        <time>2025-06-19T06:44:42Z</time>
      </trkpt>
      <trkpt lat="48.67734" lon="1.96383">
        <ele>116.6</ele>
        <time>2025-06-19T06:44:50Z</time>
      </trkpt>
      <trkpt lat="48.6773" lon="1.96372">
        <ele>117.3</ele>
        <time>2025-06-19T06:44:57Z</time>
      </trkpt>
      <trkpt lat="48.67722" lon="1.96362">
        <ele>115.8</ele>
        <time>2025-06-19T06:45:04Z</time>
      </trkpt>
      <trkpt lat="48.67715" lon="1.96351">
        <ele>115.7</ele>
        <time>2025-06-19T06:45:11Z</time>
      </trkpt>
      <trkpt lat="48.67708" lon="1.96342">
        <ele>115.1</ele>
        <time>2025-06-19T06:45:18Z</time>
      </trkpt>
      <trkpt lat="48.67705" lon="1.96328">
        <ele>115.5</ele>
        <time>2025-06-19T06:45:26Z</time>
      </trkpt>
      <trkpt lat="48.67702" lon="1.96314">
        <ele>115.5</ele>
        <time>2025-06-19T06:45:34Z</time>
      </trkpt>
      <trkpt lat="48.67699" lon="1.96301">
        <ele>115.9</ele>
        <time>2025-06-19T06:45:43Z</time>
      </trkpt>
      <trkpt lat="48.67695" lon="1.96288">
        <ele>116.5</ele>
        <time>2025-06-19T06:45:52Z</time>
      </trkpt>
      <trkpt lat="48.67689" lon="1.96277">
        <ele>117.5</ele>
        <time>2025-06-19T06:46:00Z</time>
      </trkpt>
      <trkpt lat="48.67683" lon="1.96266">
        <ele>118.5</ele>
        <time>2025-06-19T06:46:08Z</time>
      </trkpt>
      <trkpt lat="48.67676" lon="1.96257">
        <ele>118.8</ele>
        <time>2025-06-19T06:46:16Z</time>
      </trkpt>
      <trkpt lat="48.67668" lon="1.96247">
        <ele>118.4</ele>
        <time>2025-06-19T06:46:24Z</time>
      </trkpt>
      <trkpt lat="48.67663" lon="1.96234">
        <ele>117.9</ele>
        <time>2025-06-19T06:46:31Z</time>
      </trkpt>
      <trkpt lat="48.67658" lon="1.96222">
        <ele>117.2</ele>
        <time>2025-06-19T06:46:38Z</time>
      </trkpt>
      <trkpt lat="48.6766" lon="1.96207">
        <ele>117.2</ele>
        <time>2025-06-19T06:46:46Z</time>
      </trkpt>
      <trkpt lat="48.67659" lon="1.96193">
        <ele>116.8</ele>
        <time>2025-06-19T06:46:53Z</time>
      </trkpt>
      <trkpt lat="48.67661" lon="1.96179">
        <ele>116.8</ele>
        <time>2025-06-19T06:47:01Z</time>
      </trkpt>
      <trkpt lat="48.67663" lon="1.96165">
        <ele>116.7</ele>
        <time>2025-06-19T06:47:08Z</time>
      </trkpt>
      <trkpt lat="48.67666" lon="1.96152">
        <ele>116.4</ele>
        <time>2025-06-19T06:47:17Z</time>
      </trkpt>
      <trkpt lat="48.67669" lon="1.96139">
        <ele>116.8</ele>
        <time>2025-06-19T06:47:25Z</time>
      </trkpt>
      <trkpt lat="48.67677" lon="1.9613">
        <ele>119.3</ele>
        <time>2025-06-19T06:47:39Z</time>
      </trkpt>
      <trkpt lat="48.67684" lon="1.96119">
        <ele>121.1</ele>
        <time>2025-06-19T06:47:47Z</time>
      </trkpt>
      <trkpt lat="48.6769" lon="1.96107">
        <ele>122.4</ele>
        <time>2025-06-19T06:47:55Z</time>
      </trkpt>
      <trkpt lat="48.67695" lon="1.96093">
        <ele>122.8</ele>
        <time>2025-06-19T06:48:03Z</time>
      </trkpt>
      <trkpt lat="48.67696" lon="1.96079">
        <ele>122.9</ele>
        <time>2025-06-19T06:48:11Z</time>
      </trkpt>
      <trkpt lat="48.67699" lon="1.96066">
        <ele>124</ele>
        <time>2025-06-19T06:48:19Z</time>
      </trkpt>
      <trkpt lat="48.67702" lon="1.96052">
        <ele>124.6</ele>
        <time>2025-06-19T06:48:28Z</time>
      </trkpt>
      <trkpt lat="48.67706" lon="1.96039">
        <ele>125.3</ele>
        <time>2025-06-19T06:48:36Z</time>
      </trkpt>
      <trkpt lat="48.6771" lon="1.96026">
        <ele>125.8</ele>
        <time>2025-06-19T06:48:45Z</time>
      </trkpt>
      <trkpt lat="48.67715" lon="1.96015">
        <ele>126.3</ele>
        <time>2025-06-19T06:48:54Z</time>
      </trkpt>
      <trkpt lat="48.67721" lon="1.96005">
        <ele>127.1</ele>
        <time>2025-06-19T06:49:03Z</time>
      </trkpt>
      <trkpt lat="48.67729" lon="1.95998">
        <ele>128.6</ele>
        <time>2025-06-19T06:49:12Z</time>
      </trkpt>
      <trkpt lat="48.67737" lon="1.95989">
        <ele>129.8</ele>
        <time>2025-06-19T06:49:24Z</time>
      </trkpt>
      <trkpt lat="48.67744" lon="1.95978">
        <ele>130.2</ele>
        <time>2025-06-19T06:49:33Z</time>
      </trkpt>
      <trkpt lat="48.67749" lon="1.95967">
        <ele>130.4</ele>
        <time>2025-06-19T06:49:41Z</time>
      </trkpt>
      <trkpt lat="48.67755" lon="1.95955">
        <ele>130.9</ele>
        <time>2025-06-19T06:49:48Z</time>
      </trkpt>
      <trkpt lat="48.67762" lon="1.95944">
        <ele>131.4</ele>
        <time>2025-06-19T06:49:56Z</time>
      </trkpt>
      <trkpt lat="48.6777" lon="1.95938">
        <ele>132.7</ele>
        <time>2025-06-19T06:50:04Z</time>
      </trkpt>
      <trkpt lat="48.67775" lon="1.95925">
        <ele>132.3</ele>
        <time>2025-06-19T06:50:11Z</time>
      </trkpt>
      <trkpt lat="48.67781" lon="1.95914">
        <ele>132.5</ele>
        <time>2025-06-19T06:50:18Z</time>
      </trkpt>
      <trkpt lat="48.67788" lon="1.95905">
        <ele>133.6</ele>
        <time>2025-06-19T06:50:26Z</time>
      </trkpt>
      <trkpt lat="48.67793" lon="1.95892">
        <ele>133.8</ele>
        <time>2025-06-19T06:50:33Z</time>
      </trkpt>
      <trkpt lat="48.67798" lon="1.95879">
        <ele>133.7</ele>
        <time>2025-06-19T06:50:40Z</time>
      </trkpt>
      <trkpt lat="48.67807" lon="1.95873">
        <ele>135.1</ele>
        <time>2025-06-19T06:50:48Z</time>
      </trkpt>
      <trkpt lat="48.67811" lon="1.95861">
        <ele>134.5</ele>
        <time>2025-06-19T06:50:54Z</time>
      </trkpt>
      <trkpt lat="48.67814" lon="1.95848">
        <ele>134</ele>
        <time>2025-06-19T06:51:00Z</time>
      </trkpt>
      <trkpt lat="48.67819" lon="1.95834">
        <ele>133.5</ele>
        <time>2025-06-19T06:51:07Z</time>
      </trkpt>
      <trkpt lat="48.67824" lon="1.95821">
        <ele>133.5</ele>
        <time>2025-06-19T06:51:14Z</time>
      </trkpt>
      <trkpt lat="48.6783" lon="1.9581">
        <ele>133.7</ele>
        <time>2025-06-19T06:51:21Z</time>
      </trkpt>
      <trkpt lat="48.67835" lon="1.95799">
        <ele>134.1</ele>
        <time>2025-06-19T06:51:28Z</time>
      </trkpt>
      <trkpt lat="48.6784" lon="1.95787">
        <ele>134.9</ele>
        <time>2025-06-19T06:51:35Z</time>
      </trkpt>
      <trkpt lat="48.67847" lon="1.95776">
        <ele>136.2</ele>
        <time>2025-06-19T06:51:44Z</time>
      </trkpt>
      <trkpt lat="48.67853" lon="1.95765">
        <ele>137.3</ele>
        <time>2025-06-19T06:51:52Z</time>
      </trkpt>
      <trkpt lat="48.6786" lon="1.95754">
        <ele>138</ele>
        <time>2025-06-19T06:52:01Z</time>
      </trkpt>
      <trkpt lat="48.67865" lon="1.95742">
        <ele>139.3</ele>
        <time>2025-06-19T06:52:10Z</time>
      </trkpt>
      <trkpt lat="48.67872" lon="1.95731">
        <ele>141</ele>
        <time>2025-06-19T06:52:19Z</time>
      </trkpt>
      <trkpt lat="48.67878" lon="1.95721">
        <ele>142.4</ele>
        <time>2025-06-19T06:52:28Z</time>
      </trkpt>
      <trkpt lat="48.67884" lon="1.9571">
        <ele>143</ele>
        <time>2025-06-19T06:52:38Z</time>
      </trkpt>
      <trkpt lat="48.67891" lon="1.95703">
        <ele>145</ele>
        <time>2025-06-19T06:52:47Z</time>
      </trkpt>
      <trkpt lat="48.67899" lon="1.95695">
        <ele>147.5</ele>
        <time>2025-06-19T06:52:57Z</time>
      </trkpt>
      <trkpt lat="48.67906" lon="1.95684">
        <ele>148.8</ele>
        <time>2025-06-19T06:53:08Z</time>
      </trkpt>
      <trkpt lat="48.67912" lon="1.95673">
        <ele>150</ele>
        <time>2025-06-19T06:53:19Z</time>
      </trkpt>
      <trkpt lat="48.67918" lon="1.95662">
        <ele>150.8</ele>
        <time>2025-06-19T06:53:29Z</time>
      </trkpt>
      <trkpt lat="48.67925" lon="1.95652">
        <ele>151.5</ele>
        <time>2025-06-19T06:53:39Z</time>
      </trkpt>
      <trkpt lat="48.67933" lon="1.95645">
        <ele>153.7</ele>
        <time>2025-06-19T06:53:52Z</time>
      </trkpt>
      <trkpt lat="48.67937" lon="1.95633">
        <ele>152.9</ele>
        <time>2025-06-19T06:54:02Z</time>
      </trkpt>
      <trkpt lat="48.67946" lon="1.95627">
        <ele>155.1</ele>
        <time>2025-06-19T06:54:14Z</time>
      </trkpt>
      <trkpt lat="48.67953" lon="1.95617">
        <ele>155.7</ele>
        <time>2025-06-19T06:54:23Z</time>
      </trkpt>
      <trkpt lat="48.67961" lon="1.95608">
        <ele>157</ele>
        <time>2025-06-19T06:54:31Z</time>
      </trkpt>
      <trkpt lat="48.67967" lon="1.95598">
        <ele>158.4</ele>
        <time>2025-06-19T06:54:40Z</time>
      </trkpt>
      <trkpt lat="48.67973" lon="1.95586">
        <ele>159.6</ele>
        <time>2025-06-19T06:54:48Z</time>
      </trkpt>
      <trkpt lat="48.6798" lon="1.95575">
        <ele>160</ele>
        <time>2025-06-19T06:54:56Z</time>
      </trkpt>
      <trkpt lat="48.67987" lon="1.95565">
        <ele>160.7</ele>
        <time>2025-06-19T06:55:04Z</time>
      </trkpt>
      <trkpt lat="48.67993" lon="1.95553">
        <ele>161.6</ele>
        <time>2025-06-19T06:55:13Z</time>
      </trkpt>
      <trkpt lat="48.67999" lon="1.95541">
        <ele>162.2</ele>
        <time>2025-06-19T06:55:21Z</time>
      </trkpt>
      <trkpt lat="48.68001" lon="1.95528">
        <ele>161.3</ele>
        <time>2025-06-19T06:55:29Z</time>
      </trkpt>
      <trkpt lat="48.68005" lon="1.95514">
        <ele>160.8</ele>
        <time>2025-06-19T06:55:37Z</time>
      </trkpt>
      <trkpt lat="48.68006" lon="1.95499">
        <ele>159.4</ele>
        <time>2025-06-19T06:55:44Z</time>
      </trkpt>
      <trkpt lat="48.68008" lon="1.95484">
        <ele>159.1</ele>
        <time>2025-06-19T06:55:51Z</time>
      </trkpt>
      <trkpt lat="48.6801" lon="1.9547">
        <ele>158.7</ele>
        <time>2025-06-19T06:55:58Z</time>
      </trkpt>
      <trkpt lat="48.68013" lon="1.95457">
        <ele>158.8</ele>
        <time>2025-06-19T06:56:05Z</time>
      </trkpt>
      <trkpt lat="48.68021" lon="1.95452">
        <ele>161.7</ele>
        <time>2025-06-19T06:56:14Z</time>
      </trkpt>
      <trkpt lat="48.68027" lon="1.95464">
        <ele>163.6</ele>
        <time>2025-06-19T06:56:21Z</time>
      </trkpt>
      <trkpt lat="48.68036" lon="1.95464">
        <ele>165.2</ele>
        <time>2025-06-19T06:56:30Z</time>
      </trkpt>
      <trkpt lat="48.68037" lon="1.95478">
        <ele>165.6</ele>
        <time>2025-06-19T06:56:51Z</time>
      </trkpt>
      <trkpt lat="48.68034" lon="1.9549">
        <ele>165.5</ele>
        <time>2025-06-19T06:57:00Z</time>
      </trkpt>
      <trkpt lat="48.68029" lon="1.95502">
        <ele>165.2</ele>
        <time>2025-06-19T06:57:08Z</time>
      </trkpt>
      <trkpt lat="48.68025" lon="1.95516">
        <ele>165.5</ele>
        <time>2025-06-19T06:57:18Z</time>
      </trkpt>
      <trkpt lat="48.6802" lon="1.95528">
        <ele>165.3</ele>
        <time>2025-06-19T06:57:26Z</time>
      </trkpt>
      <trkpt lat="48.68016" lon="1.9554">
        <ele>165.2</ele>
        <time>2025-06-19T06:57:34Z</time>
      </trkpt>
      <trkpt lat="48.68011" lon="1.95552">
        <ele>165.3</ele>
        <time>2025-06-19T06:57:41Z</time>
      </trkpt>
      <trkpt lat="48.68006" lon="1.95565">
        <ele>165.6</ele>
        <time>2025-06-19T06:57:47Z</time>
      </trkpt>
      <trkpt lat="48.68002" lon="1.95579">
        <ele>166</ele>
        <time>2025-06-19T06:57:56Z</time>
      </trkpt>
      <trkpt lat="48.67999" lon="1.95594">
        <ele>166.5</ele>
        <time>2025-06-19T06:58:04Z</time>
      </trkpt>
      <trkpt lat="48.67994" lon="1.95606">
        <ele>166.3</ele>
        <time>2025-06-19T06:58:11Z</time>
      </trkpt>
      <trkpt lat="48.67989" lon="1.95619">
        <ele>166.5</ele>
        <time>2025-06-19T06:58:19Z</time>
      </trkpt>
      <trkpt lat="48.67985" lon="1.95632">
        <ele>167.1</ele>
        <time>2025-06-19T06:58:26Z</time>
      </trkpt>
      <trkpt lat="48.6798" lon="1.95643">
        <ele>167.3</ele>
        <time>2025-06-19T06:58:33Z</time>
      </trkpt>
      <trkpt lat="48.67975" lon="1.95656">
        <ele>167.5</ele>
        <time>2025-06-19T06:58:40Z</time>
      </trkpt>
      <trkpt lat="48.6797" lon="1.95668">
        <ele>167.7</ele>
        <time>2025-06-19T06:58:47Z</time>
      </trkpt>
      <trkpt lat="48.67965" lon="1.9568">
        <ele>167.3</ele>
        <time>2025-06-19T06:58:54Z</time>
      </trkpt>
      <trkpt lat="48.67961" lon="1.95692">
        <ele>167.2</ele>
        <time>2025-06-19T06:59:01Z</time>
      </trkpt>
      <trkpt lat="48.67957" lon="1.95704">
        <ele>167.3</ele>
        <time>2025-06-19T06:59:08Z</time>
      </trkpt>
      <trkpt lat="48.67954" lon="1.95719">
        <ele>167.8</ele>
        <time>2025-06-19T06:59:16Z</time>
      </trkpt>
      <trkpt lat="48.67949" lon="1.95732">
        <ele>168.1</ele>
        <time>2025-06-19T06:59:23Z</time>
      </trkpt>
      <trkpt lat="48.67944" lon="1.95743">
        <ele>168.3</ele>
        <time>2025-06-19T06:59:30Z</time>
      </trkpt>
      <trkpt lat="48.6794" lon="1.95757">
        <ele>168.4</ele>
        <time>2025-06-19T06:59:38Z</time>
      </trkpt>
      <trkpt lat="48.67937" lon="1.9577">
        <ele>168.2</ele>
        <time>2025-06-19T06:59:45Z</time>
      </trkpt>
      <trkpt lat="48.67931" lon="1.95781">
        <ele>167.8</ele>
        <time>2025-06-19T06:59:52Z</time>
      </trkpt>
      <trkpt lat="48.67928" lon="1.95796">
        <ele>168</ele>
        <time>2025-06-19T06:59:59Z</time>
      </trkpt>
      <trkpt lat="48.67925" lon="1.9581">
        <ele>168.3</ele>
        <time>2025-06-19T07:00:06Z</time>
      </trkpt>
      <trkpt lat="48.6792" lon="1.95822">
        <ele>168</ele>
        <time>2025-06-19T07:00:13Z</time>
      </trkpt>
      <trkpt lat="48.67915" lon="1.95835">
        <ele>167.7</ele>
        <time>2025-06-19T07:00:20Z</time>
      </trkpt>
      <trkpt lat="48.6791" lon="1.95848">
        <ele>167</ele>
        <time>2025-06-19T07:00:27Z</time>
      </trkpt>
      <trkpt lat="48.67906" lon="1.95861">
        <ele>166.8</ele>
        <time>2025-06-19T07:00:34Z</time>
      </trkpt>
      <trkpt lat="48.67903" lon="1.95874">
        <ele>167</ele>
        <time>2025-06-19T07:00:41Z</time>
      </trkpt>
      <trkpt lat="48.67899" lon="1.95887">
        <ele>167</ele>
        <time>2025-06-19T07:00:48Z</time>
      </trkpt>
      <trkpt lat="48.67895" lon="1.959">
        <ele>167.2</ele>
        <time>2025-06-19T07:00:55Z</time>
      </trkpt>
      <trkpt lat="48.67889" lon="1.95912">
        <ele>167.5</ele>
        <time>2025-06-19T07:01:01Z</time>
      </trkpt>
      <trkpt lat="48.67884" lon="1.95923">
        <ele>166.8</ele>
        <time>2025-06-19T07:01:08Z</time>
      </trkpt>
      <trkpt lat="48.6788" lon="1.95937">
        <ele>166.8</ele>
        <time>2025-06-19T07:01:15Z</time>
      </trkpt>
      <trkpt lat="48.67874" lon="1.95949">
        <ele>166.6</ele>
        <time>2025-06-19T07:01:22Z</time>
      </trkpt>
      <trkpt lat="48.67867" lon="1.9596">
        <ele>166</ele>
        <time>2025-06-19T07:01:29Z</time>
      </trkpt>
      <trkpt lat="48.67861" lon="1.95972">
        <ele>165.9</ele>
        <time>2025-06-19T07:01:36Z</time>
      </trkpt>
      <trkpt lat="48.67854" lon="1.95982">
        <ele>164.7</ele>
        <time>2025-06-19T07:01:43Z</time>
      </trkpt>
      <trkpt lat="48.67847" lon="1.95993">
        <ele>163.8</ele>
        <time>2025-06-19T07:01:50Z</time>
      </trkpt>
      <trkpt lat="48.67841" lon="1.96003">
        <ele>163.4</ele>
        <time>2025-06-19T07:01:56Z</time>
      </trkpt>
      <trkpt lat="48.67834" lon="1.96013">
        <ele>163.1</ele>
        <time>2025-06-19T07:02:03Z</time>
      </trkpt>
      <trkpt lat="48.67828" lon="1.96025">
        <ele>162.9</ele>
        <time>2025-06-19T07:02:10Z</time>
      </trkpt>
      <trkpt lat="48.67823" lon="1.96036">
        <ele>162.6</ele>
        <time>2025-06-19T07:02:17Z</time>
      </trkpt>
      <trkpt lat="48.67815" lon="1.96045">
        <ele>161.3</ele>
        <time>2025-06-19T07:02:24Z</time>
      </trkpt>
      <trkpt lat="48.67809" lon="1.96055">
        <ele>160.8</ele>
        <time>2025-06-19T07:02:31Z</time>
      </trkpt>
      <trkpt lat="48.67805" lon="1.96067">
        <ele>160.9</ele>
        <time>2025-06-19T07:04:34Z</time>
      </trkpt>
      <trkpt lat="48.67802" lon="1.96082">
        <ele>161.4</ele>
        <time>2025-06-19T07:04:42Z</time>
      </trkpt>
      <trkpt lat="48.67798" lon="1.96095">
        <ele>161.5</ele>
        <time>2025-06-19T07:04:50Z</time>
      </trkpt>
      <trkpt lat="48.67793" lon="1.96109">
        <ele>161.3</ele>
        <time>2025-06-19T07:04:58Z</time>
      </trkpt>
      <trkpt lat="48.67789" lon="1.96123">
        <ele>161.8</ele>
        <time>2025-06-19T07:05:05Z</time>
      </trkpt>
      <trkpt lat="48.67786" lon="1.96136">
        <ele>162.7</ele>
        <time>2025-06-19T07:05:12Z</time>
      </trkpt>
      <trkpt lat="48.67783" lon="1.96149">
        <ele>163</ele>
        <time>2025-06-19T07:05:18Z</time>
      </trkpt>
      <trkpt lat="48.67783" lon="1.96164">
        <ele>164.1</ele>
        <time>2025-06-19T07:05:25Z</time>
      </trkpt>
      <trkpt lat="48.67786" lon="1.96178">
        <ele>164.2</ele>
        <time>2025-06-19T07:05:32Z</time>
      </trkpt>
      <trkpt lat="48.67791" lon="1.9619">
        <ele>164.6</ele>
        <time>2025-06-19T07:05:39Z</time>
      </trkpt>
      <trkpt lat="48.67797" lon="1.96203">
        <ele>164.6</ele>
        <time>2025-06-19T07:05:46Z</time>
      </trkpt>
      <trkpt lat="48.67799" lon="1.96218">
        <ele>163.3</ele>
        <time>2025-06-19T07:05:53Z</time>
      </trkpt>
      <trkpt lat="48.67804" lon="1.96231">
        <ele>164.1</ele>
        <time>2025-06-19T07:06:00Z</time>
      </trkpt>
      <trkpt lat="48.67811" lon="1.96242">
        <ele>165.2</ele>
        <time>2025-06-19T07:06:08Z</time>
      </trkpt>
      <trkpt lat="48.67818" lon="1.96252">
        <ele>166.1</ele>
        <time>2025-06-19T07:06:16Z</time>
      </trkpt>
      <trkpt lat="48.67824" lon="1.96263">
        <ele>166.9</ele>
        <time>2025-06-19T07:06:24Z</time>
      </trkpt>
      <trkpt lat="48.67831" lon="1.96275">
        <ele>167.6</ele>
        <time>2025-06-19T07:06:31Z</time>
      </trkpt>
      <trkpt lat="48.67838" lon="1.96285">
        <ele>167.4</ele>
        <time>2025-06-19T07:06:38Z</time>
      </trkpt>
      <trkpt lat="48.67845" lon="1.96294">
        <ele>166.7</ele>
        <time>2025-06-19T07:06:45Z</time>
      </trkpt>
      <trkpt lat="48.67855" lon="1.96296">
        <ele>166.8</ele>
        <time>2025-06-19T07:06:53Z</time>
      </trkpt>
      <trkpt lat="48.67864" lon="1.96299">
        <ele>166.8</ele>
        <time>2025-06-19T07:07:00Z</time>
      </trkpt>
      <trkpt lat="48.67873" lon="1.96302">
        <ele>166.8</ele>
        <time>2025-06-19T07:07:07Z</time>
      </trkpt>
      <trkpt lat="48.67882" lon="1.96309">
        <ele>166.3</ele>
        <time>2025-06-19T07:07:14Z</time>
      </trkpt>
      <trkpt lat="48.67891" lon="1.96314">
        <ele>165.8</ele>
        <time>2025-06-19T07:07:21Z</time>
      </trkpt>
      <trkpt lat="48.679" lon="1.96315">
        <ele>165.3</ele>
        <time>2025-06-19T07:07:28Z</time>
      </trkpt>
      <trkpt lat="48.6791" lon="1.96314">
        <ele>165.2</ele>
        <time>2025-06-19T07:07:36Z</time>
      </trkpt>
      <trkpt lat="48.67919" lon="1.96313">
        <ele>165.2</ele>
        <time>2025-06-19T07:07:43Z</time>
      </trkpt>
      <trkpt lat="48.67929" lon="1.96312">
        <ele>165.2</ele>
        <time>2025-06-19T07:07:50Z</time>
      </trkpt>
      <trkpt lat="48.67938" lon="1.9631">
        <ele>165.5</ele>
        <time>2025-06-19T07:07:57Z</time>
      </trkpt>
      <trkpt lat="48.67948" lon="1.96308">
        <ele>165.5</ele>
        <time>2025-06-19T07:08:04Z</time>
      </trkpt>
      <trkpt lat="48.67958" lon="1.96307">
        <ele>165.4</ele>
        <time>2025-06-19T07:08:11Z</time>
      </trkpt>
      <trkpt lat="48.67968" lon="1.96305">
        <ele>165.2</ele>
        <time>2025-06-19T07:08:18Z</time>
      </trkpt>
      <trkpt lat="48.67979" lon="1.96303">
        <ele>165.3</ele>
        <time>2025-06-19T07:08:25Z</time>
      </trkpt>
      <trkpt lat="48.67988" lon="1.96298">
        <ele>165.8</ele>
        <time>2025-06-19T07:08:32Z</time>
      </trkpt>
      <trkpt lat="48.67998" lon="1.96295">
        <ele>166.1</ele>
        <time>2025-06-19T07:08:39Z</time>
      </trkpt>
      <trkpt lat="48.68008" lon="1.96294">
        <ele>166.2</ele>
        <time>2025-06-19T07:08:46Z</time>
      </trkpt>
      <trkpt lat="48.68018" lon="1.96294">
        <ele>166.3</ele>
        <time>2025-06-19T07:08:53Z</time>
      </trkpt>
      <trkpt lat="48.68028" lon="1.96291">
        <ele>166.6</ele>
        <time>2025-06-19T07:09:00Z</time>
      </trkpt>
      <trkpt lat="48.68037" lon="1.96287">
        <ele>166.7</ele>
        <time>2025-06-19T07:09:07Z</time>
      </trkpt>
      <trkpt lat="48.68047" lon="1.96285">
        <ele>166.6</ele>
        <time>2025-06-19T07:09:15Z</time>
      </trkpt>
      <trkpt lat="48.68057" lon="1.96283">
        <ele>166.4</ele>
        <time>2025-06-19T07:09:22Z</time>
      </trkpt>
      <trkpt lat="48.68066" lon="1.96278">
        <ele>166.2</ele>
        <time>2025-06-19T07:09:30Z</time>
      </trkpt>
      <trkpt lat="48.68075" lon="1.96277">
        <ele>165.6</ele>
        <time>2025-06-19T07:09:37Z</time>
      </trkpt>
      <trkpt lat="48.68085" lon="1.96276">
        <ele>164.9</ele>
        <time>2025-06-19T07:09:44Z</time>
      </trkpt>
      <trkpt lat="48.68095" lon="1.96279">
        <ele>164.4</ele>
        <time>2025-06-19T07:09:51Z</time>
      </trkpt>
      <trkpt lat="48.68106" lon="1.96278">
        <ele>164.1</ele>
        <time>2025-06-19T07:09:58Z</time>
      </trkpt>
      <trkpt lat="48.68115" lon="1.96276">
        <ele>163.6</ele>
        <time>2025-06-19T07:10:05Z</time>
      </trkpt>
      <trkpt lat="48.68125" lon="1.96273">
        <ele>162.5</ele>
        <time>2025-06-19T07:10:12Z</time>
      </trkpt>
      <trkpt lat="48.68133" lon="1.96267">
        <ele>161.6</ele>
        <time>2025-06-19T07:10:19Z</time>
      </trkpt>
      <trkpt lat="48.68143" lon="1.96261">
        <ele>161.1</ele>
        <time>2025-06-19T07:10:27Z</time>
      </trkpt>
      <trkpt lat="48.68152" lon="1.96254">
        <ele>161.7</ele>
        <time>2025-06-19T07:10:35Z</time>
      </trkpt>
      <trkpt lat="48.68161" lon="1.96249">
        <ele>162.6</ele>
        <time>2025-06-19T07:10:42Z</time>
      </trkpt>
      <trkpt lat="48.6817" lon="1.96244">
        <ele>163.3</ele>
        <time>2025-06-19T07:10:50Z</time>
      </trkpt>
      <trkpt lat="48.6818" lon="1.96238">
        <ele>163.8</ele>
        <time>2025-06-19T07:10:58Z</time>
      </trkpt>
      <trkpt lat="48.68187" lon="1.9623">
        <ele>164.8</ele>
        <time>2025-06-19T07:11:06Z</time>
      </trkpt>
      <trkpt lat="48.68196" lon="1.96224">
        <ele>165.8</ele>
        <time>2025-06-19T07:11:14Z</time>
      </trkpt>
      <trkpt lat="48.68204" lon="1.96218">
        <ele>165.8</ele>
        <time>2025-06-19T07:11:22Z</time>
      </trkpt>
      <trkpt lat="48.68213" lon="1.96212">
        <ele>166</ele>
        <time>2025-06-19T07:11:28Z</time>
      </trkpt>
      <trkpt lat="48.68222" lon="1.9621">
        <ele>165.8</ele>
        <time>2025-06-19T07:11:34Z</time>
      </trkpt>
      <trkpt lat="48.68231" lon="1.96208">
        <ele>165.9</ele>
        <time>2025-06-19T07:11:40Z</time>
      </trkpt>
      <trkpt lat="48.68241" lon="1.96203">
        <ele>165.9</ele>
        <time>2025-06-19T07:11:47Z</time>
      </trkpt>
      <trkpt lat="48.68244" lon="1.9619">
        <ele>166.4</ele>
        <time>2025-06-19T07:11:54Z</time>
      </trkpt>
      <trkpt lat="48.68253" lon="1.96184">
        <ele>166.2</ele>
        <time>2025-06-19T07:12:02Z</time>
      </trkpt>
      <trkpt lat="48.68263" lon="1.96182">
        <ele>165.7</ele>
        <time>2025-06-19T07:12:09Z</time>
      </trkpt>
      <trkpt lat="48.68272" lon="1.96177">
        <ele>165.6</ele>
        <time>2025-06-19T07:12:16Z</time>
      </trkpt>
      <trkpt lat="48.68281" lon="1.96172">
        <ele>165.5</ele>
        <time>2025-06-19T07:12:23Z</time>
      </trkpt>
      <trkpt lat="48.68289" lon="1.96166">
        <ele>165.6</ele>
        <time>2025-06-19T07:12:30Z</time>
      </trkpt>
      <trkpt lat="48.68299" lon="1.96161">
        <ele>165.5</ele>
        <time>2025-06-19T07:12:37Z</time>
      </trkpt>
      <trkpt lat="48.68308" lon="1.96154">
        <ele>165.3</ele>
        <time>2025-06-19T07:12:44Z</time>
      </trkpt>
      <trkpt lat="48.68317" lon="1.96149">
        <ele>165.1</ele>
        <time>2025-06-19T07:12:50Z</time>
      </trkpt>
      <trkpt lat="48.68326" lon="1.96145">
        <ele>164.9</ele>
        <time>2025-06-19T07:12:56Z</time>
      </trkpt>
      <trkpt lat="48.68335" lon="1.96141">
        <ele>164.8</ele>
        <time>2025-06-19T07:13:02Z</time>
      </trkpt>
      <trkpt lat="48.68345" lon="1.96137">
        <ele>164.2</ele>
        <time>2025-06-19T07:13:09Z</time>
      </trkpt>
      <trkpt lat="48.68355" lon="1.96136">
        <ele>163.5</ele>
        <time>2025-06-19T07:13:16Z</time>
      </trkpt>
      <trkpt lat="48.68365" lon="1.96132">
        <ele>162.9</ele>
        <time>2025-06-19T07:13:23Z</time>
      </trkpt>
      <trkpt lat="48.68373" lon="1.96129">
        <ele>162</ele>
        <time>2025-06-19T07:13:29Z</time>
      </trkpt>
      <trkpt lat="48.68382" lon="1.96128">
        <ele>161.1</ele>
        <time>2025-06-19T07:13:35Z</time>
      </trkpt>
      <trkpt lat="48.68392" lon="1.96125">
        <ele>159.9</ele>
        <time>2025-06-19T07:13:42Z</time>
      </trkpt>
      <trkpt lat="48.68401" lon="1.96123">
        <ele>158.4</ele>
        <time>2025-06-19T07:13:50Z</time>
      </trkpt>
      <trkpt lat="48.68411" lon="1.96122">
        <ele>156.7</ele>
        <time>2025-06-19T07:13:59Z</time>
      </trkpt>
      <trkpt lat="48.68419" lon="1.96118">
        <ele>155.3</ele>
        <time>2025-06-19T07:14:08Z</time>
      </trkpt>
      <trkpt lat="48.68428" lon="1.96111">
        <ele>154.4</ele>
        <time>2025-06-19T07:14:18Z</time>
      </trkpt>
      <trkpt lat="48.68437" lon="1.96113">
        <ele>152.9</ele>
        <time>2025-06-19T07:14:30Z</time>
      </trkpt>
      <trkpt lat="48.68447" lon="1.9611">
        <ele>152</ele>
        <time>2025-06-19T07:14:38Z</time>
      </trkpt>
      <trkpt lat="48.68456" lon="1.96106">
        <ele>151.9</ele>
        <time>2025-06-19T07:14:46Z</time>
      </trkpt>
      <trkpt lat="48.68466" lon="1.96102">
        <ele>151.6</ele>
        <time>2025-06-19T07:14:54Z</time>
      </trkpt>
      <trkpt lat="48.68475" lon="1.96096">
        <ele>151.9</ele>
        <time>2025-06-19T07:15:01Z</time>
      </trkpt>
      <trkpt lat="48.68482" lon="1.96087">
        <ele>153.2</ele>
        <time>2025-06-19T07:15:08Z</time>
      </trkpt>
      <trkpt lat="48.68488" lon="1.96077">
        <ele>154.5</ele>
        <time>2025-06-19T07:15:16Z</time>
      </trkpt>
      <trkpt lat="48.68497" lon="1.96067">
        <ele>155.7</ele>
        <time>2025-06-19T07:15:25Z</time>
      </trkpt>
      <trkpt lat="48.68505" lon="1.96062">
        <ele>157.3</ele>
        <time>2025-06-19T07:15:36Z</time>
      </trkpt>
      <trkpt lat="48.68512" lon="1.96052">
        <ele>158.9</ele>
        <time>2025-06-19T07:15:47Z</time>
      </trkpt>
      <trkpt lat="48.68517" lon="1.9604">
        <ele>160</ele>
        <time>2025-06-19T07:15:58Z</time>
      </trkpt>
      <trkpt lat="48.68521" lon="1.96027">
        <ele>160.5</ele>
        <time>2025-06-19T07:16:08Z</time>
      </trkpt>
      <trkpt lat="48.68524" lon="1.96014">
        <ele>161.2</ele>
        <time>2025-06-19T07:16:17Z</time>
      </trkpt>
      <trkpt lat="48.68526" lon="1.95999">
        <ele>161.7</ele>
        <time>2025-06-19T07:16:26Z</time>
      </trkpt>
      <trkpt lat="48.68529" lon="1.95985">
        <ele>162.1</ele>
        <time>2025-06-19T07:16:34Z</time>
      </trkpt>
      <trkpt lat="48.68532" lon="1.9597">
        <ele>162.6</ele>
        <time>2025-06-19T07:16:42Z</time>
      </trkpt>
      <trkpt lat="48.68536" lon="1.95958">
        <ele>163.2</ele>
        <time>2025-06-19T07:16:49Z</time>
      </trkpt>
      <trkpt lat="48.68542" lon="1.95947">
        <ele>164.1</ele>
        <time>2025-06-19T07:16:56Z</time>
      </trkpt>
      <trkpt lat="48.68549" lon="1.95937">
        <ele>165</ele>
        <time>2025-06-19T07:17:07Z</time>
      </trkpt>
      <trkpt lat="48.68553" lon="1.95923">
        <ele>165.6</ele>
        <time>2025-06-19T07:17:18Z</time>
      </trkpt>
      <trkpt lat="48.68555" lon="1.95908">
        <ele>165.9</ele>
        <time>2025-06-19T07:17:30Z</time>
      </trkpt>
      <trkpt lat="48.68556" lon="1.95894">
        <ele>166</ele>
        <time>2025-06-19T07:17:37Z</time>
      </trkpt>
      <trkpt lat="48.68564" lon="1.95888">
        <ele>166.7</ele>
        <time>2025-06-19T07:17:46Z</time>
      </trkpt>
      <trkpt lat="48.68573" lon="1.95896">
        <ele>167.3</ele>
        <time>2025-06-19T07:17:54Z</time>
      </trkpt>
      <trkpt lat="48.68581" lon="1.95902">
        <ele>167.9</ele>
        <time>2025-06-19T07:18:01Z</time>
      </trkpt>
      <trkpt lat="48.68589" lon="1.95908">
        <ele>168.4</ele>
        <time>2025-06-19T07:18:08Z</time>
      </trkpt>
      <trkpt lat="48.68599" lon="1.95906">
        <ele>169.1</ele>
        <time>2025-06-19T07:18:18Z</time>
      </trkpt>
      <trkpt lat="48.68608" lon="1.95903">
        <ele>169.8</ele>
        <time>2025-06-19T07:18:27Z</time>
      </trkpt>
      <trkpt lat="48.68617" lon="1.95908">
        <ele>170.2</ele>
        <time>2025-06-19T07:18:36Z</time>
      </trkpt>
      <trkpt lat="48.68625" lon="1.95914">
        <ele>170.5</ele>
        <time>2025-06-19T07:18:43Z</time>
      </trkpt>
      <trkpt lat="48.68635" lon="1.95915">
        <ele>170.9</ele>
        <time>2025-06-19T07:18:51Z</time>
      </trkpt>
      <trkpt lat="48.68645" lon="1.95917">
        <ele>171.2</ele>
        <time>2025-06-19T07:18:58Z</time>
      </trkpt>
      <trkpt lat="48.68653" lon="1.95925">
        <ele>171.2</ele>
        <time>2025-06-19T07:19:05Z</time>
      </trkpt>
      <trkpt lat="48.68661" lon="1.95934">
        <ele>171.1</ele>
        <time>2025-06-19T07:19:12Z</time>
      </trkpt>
      <trkpt lat="48.68664" lon="1.95948">
        <ele>170.9</ele>
        <time>2025-06-19T07:19:19Z</time>
      </trkpt>
      <trkpt lat="48.68665" lon="1.95962">
        <ele>170.9</ele>
        <time>2025-06-19T07:19:26Z</time>
      </trkpt>
      <trkpt lat="48.68665" lon="1.95976">
        <ele>171.1</ele>
        <time>2025-06-19T07:19:32Z</time>
      </trkpt>
      <trkpt lat="48.68664" lon="1.95991">
        <ele>171.5</ele>
        <time>2025-06-19T07:19:40Z</time>
      </trkpt>
      <trkpt lat="48.68658" lon="1.96003">
        <ele>171.4</ele>
        <time>2025-06-19T07:19:54Z</time>
      </trkpt>
      <trkpt lat="48.68655" lon="1.96016">
        <ele>171.2</ele>
        <time>2025-06-19T07:20:02Z</time>
      </trkpt>
      <trkpt lat="48.68656" lon="1.9603">
        <ele>171.3</ele>
        <time>2025-06-19T07:20:09Z</time>
      </trkpt>
      <trkpt lat="48.68657" lon="1.96044">
        <ele>171.5</ele>
        <time>2025-06-19T07:20:16Z</time>
      </trkpt>
      <trkpt lat="48.6866" lon="1.96058">
        <ele>171.8</ele>
        <time>2025-06-19T07:20:24Z</time>
      </trkpt>
      <trkpt lat="48.68658" lon="1.96073">
        <ele>171.7</ele>
        <time>2025-06-19T07:20:32Z</time>
      </trkpt>
      <trkpt lat="48.68657" lon="1.96087">
        <ele>171.6</ele>
        <time>2025-06-19T07:20:39Z</time>
      </trkpt>
      <trkpt lat="48.68652" lon="1.961">
        <ele>171.2</ele>
        <time>2025-06-19T07:20:46Z</time>
      </trkpt>
      <trkpt lat="48.68647" lon="1.96113">
        <ele>170.9</ele>
        <time>2025-06-19T07:20:53Z</time>
      </trkpt>
      <trkpt lat="48.68642" lon="1.96124">
        <ele>170</ele>
        <time>2025-06-19T07:20:59Z</time>
      </trkpt>
      <trkpt lat="48.68636" lon="1.96137">
        <ele>169</ele>
        <time>2025-06-19T07:21:06Z</time>
      </trkpt>
      <trkpt lat="48.68631" lon="1.96151">
        <ele>167</ele>
        <time>2025-06-19T07:21:13Z</time>
      </trkpt>
      <trkpt lat="48.68626" lon="1.96163">
        <ele>165.1</ele>
        <time>2025-06-19T07:21:21Z</time>
      </trkpt>
      <trkpt lat="48.68618" lon="1.96171">
        <ele>163.2</ele>
        <time>2025-06-19T07:21:34Z</time>
      </trkpt>
      <trkpt lat="48.68616" lon="1.96185">
        <ele>160.2</ele>
        <time>2025-06-19T07:21:46Z</time>
      </trkpt>
      <trkpt lat="48.68619" lon="1.96199">
        <ele>157.4</ele>
        <time>2025-06-19T07:21:56Z</time>
      </trkpt>
      <trkpt lat="48.68627" lon="1.96208">
        <ele>155.6</ele>
        <time>2025-06-19T07:22:04Z</time>
      </trkpt>
      <trkpt lat="48.68634" lon="1.96218">
        <ele>153.7</ele>
        <time>2025-06-19T07:22:18Z</time>
      </trkpt>
      <trkpt lat="48.6864" lon="1.96229">
        <ele>151.7</ele>
        <time>2025-06-19T07:22:27Z</time>
      </trkpt>
      <trkpt lat="48.68642" lon="1.96243">
        <ele>149</ele>
        <time>2025-06-19T07:22:35Z</time>
      </trkpt>
      <trkpt lat="48.68649" lon="1.96254">
        <ele>146.8</ele>
        <time>2025-06-19T07:22:44Z</time>
      </trkpt>
      <trkpt lat="48.68658" lon="1.96255">
        <ele>145.9</ele>
        <time>2025-06-19T07:23:03Z</time>
      </trkpt>
      <trkpt lat="48.68668" lon="1.9626">
        <ele>144.5</ele>
        <time>2025-06-19T07:23:11Z</time>
      </trkpt>
      <trkpt lat="48.68676" lon="1.96265">
        <ele>143</ele>
        <time>2025-06-19T07:23:22Z</time>
      </trkpt>
      <trkpt lat="48.68685" lon="1.96269">
        <ele>141.8</ele>
        <time>2025-06-19T07:23:29Z</time>
      </trkpt>
      <trkpt lat="48.68682" lon="1.96282">
        <ele>140.7</ele>
        <time>2025-06-19T07:24:00Z</time>
      </trkpt>
      <trkpt lat="48.68675" lon="1.96293">
        <ele>140.5</ele>
        <time>2025-06-19T07:24:15Z</time>
      </trkpt>
      <trkpt lat="48.68669" lon="1.96304">
        <ele>140</ele>
        <time>2025-06-19T07:24:26Z</time>
      </trkpt>
      <trkpt lat="48.68662" lon="1.96315">
        <ele>139.6</ele>
        <time>2025-06-19T07:24:37Z</time>
      </trkpt>
      <trkpt lat="48.68652" lon="1.96319">
        <ele>139</ele>
        <time>2025-06-19T07:24:46Z</time>
      </trkpt>
      <trkpt lat="48.68642" lon="1.96321">
        <ele>138.5</ele>
        <time>2025-06-19T07:24:55Z</time>
      </trkpt>
      <trkpt lat="48.68634" lon="1.96326">
        <ele>137.2</ele>
        <time>2025-06-19T07:25:04Z</time>
      </trkpt>
      <trkpt lat="48.68626" lon="1.96334">
        <ele>135.6</ele>
        <time>2025-06-19T07:25:11Z</time>
      </trkpt>
      <trkpt lat="48.68618" lon="1.96342">
        <ele>134.4</ele>
        <time>2025-06-19T07:25:19Z</time>
      </trkpt>
      <trkpt lat="48.68609" lon="1.96337">
        <ele>133.5</ele>
        <time>2025-06-19T07:25:27Z</time>
      </trkpt>
      <trkpt lat="48.68599" lon="1.96341">
        <ele>132.2</ele>
        <time>2025-06-19T07:25:35Z</time>
      </trkpt>
      <trkpt lat="48.6859" lon="1.96347">
        <ele>131.2</ele>
        <time>2025-06-19T07:25:42Z</time>
      </trkpt>
      <trkpt lat="48.68582" lon="1.96354">
        <ele>130.6</ele>
        <time>2025-06-19T07:25:49Z</time>
      </trkpt>
      <trkpt lat="48.68572" lon="1.96358">
        <ele>130.1</ele>
        <time>2025-06-19T07:26:06Z</time>
      </trkpt>
      <trkpt lat="48.68564" lon="1.96364">
        <ele>129.6</ele>
        <time>2025-06-19T07:26:15Z</time>
      </trkpt>
      <trkpt lat="48.68555" lon="1.96367">
        <ele>129</ele>
        <time>2025-06-19T07:26:23Z</time>
      </trkpt>
      <trkpt lat="48.68545" lon="1.96368">
        <ele>128.9</ele>
        <time>2025-06-19T07:26:31Z</time>
      </trkpt>
      <trkpt lat="48.68535" lon="1.96372">
        <ele>128.7</ele>
        <time>2025-06-19T07:26:40Z</time>
      </trkpt>
      <trkpt lat="48.68527" lon="1.96375">
        <ele>128.5</ele>
        <time>2025-06-19T07:26:49Z</time>
      </trkpt>
      <trkpt lat="48.68517" lon="1.96381">
        <ele>128.7</ele>
        <time>2025-06-19T07:26:56Z</time>
      </trkpt>
      <trkpt lat="48.68508" lon="1.96383">
        <ele>128.9</ele>
        <time>2025-06-19T07:27:02Z</time>
      </trkpt>
      <trkpt lat="48.68499" lon="1.96386">
        <ele>129.2</ele>
        <time>2025-06-19T07:27:10Z</time>
      </trkpt>
      <trkpt lat="48.68491" lon="1.96393">
        <ele>129.8</ele>
        <time>2025-06-19T07:27:18Z</time>
      </trkpt>
      <trkpt lat="48.68482" lon="1.96396">
        <ele>130.7</ele>
        <time>2025-06-19T07:27:26Z</time>
      </trkpt>
      <trkpt lat="48.68473" lon="1.96398">
        <ele>131.6</ele>
        <time>2025-06-19T07:27:35Z</time>
      </trkpt>
      <trkpt lat="48.68463" lon="1.96398">
        <ele>133</ele>
        <time>2025-06-19T07:27:44Z</time>
      </trkpt>
      <trkpt lat="48.68453" lon="1.96398">
        <ele>134.4</ele>
        <time>2025-06-19T07:27:54Z</time>
      </trkpt>
      <trkpt lat="48.68444" lon="1.964">
        <ele>135.7</ele>
        <time>2025-06-19T07:28:03Z</time>
      </trkpt>
      <trkpt lat="48.68435" lon="1.96404">
        <ele>136.5</ele>
        <time>2025-06-19T07:28:12Z</time>
      </trkpt>
      <trkpt lat="48.68425" lon="1.96407">
        <ele>137.4</ele>
        <time>2025-06-19T07:28:57Z</time>
      </trkpt>
      <trkpt lat="48.68434" lon="1.96404">
        <ele>136.6</ele>
        <time>2025-06-19T07:29:53Z</time>
      </trkpt>
      <trkpt lat="48.6844" lon="1.96414">
        <ele>135.5</ele>
        <time>2025-06-19T07:30:34Z</time>
      </trkpt>
      <trkpt lat="48.68441" lon="1.96428">
        <ele>134.9</ele>
        <time>2025-06-19T07:30:41Z</time>
      </trkpt>
      <trkpt lat="48.68442" lon="1.96442">
        <ele>134.3</ele>
        <time>2025-06-19T07:30:48Z</time>
      </trkpt>
      <trkpt lat="48.68442" lon="1.96456">
        <ele>133.4</ele>
        <time>2025-06-19T07:30:57Z</time>
      </trkpt>
      <trkpt lat="48.68444" lon="1.96471">
        <ele>132.1</ele>
        <time>2025-06-19T07:31:06Z</time>
      </trkpt>
      <trkpt lat="48.68444" lon="1.96487">
        <ele>131.5</ele>
        <time>2025-06-19T07:31:13Z</time>
      </trkpt>
      <trkpt lat="48.68444" lon="1.96502">
        <ele>130.9</ele>
        <time>2025-06-19T07:31:20Z</time>
      </trkpt>
      <trkpt lat="48.68441" lon="1.96516">
        <ele>130.1</ele>
        <time>2025-06-19T07:31:27Z</time>
      </trkpt>
      <trkpt lat="48.6844" lon="1.9653">
        <ele>129.2</ele>
        <time>2025-06-19T07:31:34Z</time>
      </trkpt>
      <trkpt lat="48.6844" lon="1.96544">
        <ele>128.6</ele>
        <time>2025-06-19T07:31:41Z</time>
      </trkpt>
      <trkpt lat="48.68443" lon="1.96558">
        <ele>128</ele>
        <time>2025-06-19T07:31:49Z</time>
      </trkpt>
      <trkpt lat="48.68449" lon="1.96571">
        <ele>127.7</ele>
        <time>2025-06-19T07:32:03Z</time>
      </trkpt>
      <trkpt lat="48.68453" lon="1.96584">
        <ele>127.4</ele>
        <time>2025-06-19T07:32:10Z</time>
      </trkpt>
      <trkpt lat="48.68457" lon="1.96598">
        <ele>126.6</ele>
        <time>2025-06-19T07:32:17Z</time>
      </trkpt>
      <trkpt lat="48.6846" lon="1.96611">
        <ele>125.8</ele>
        <time>2025-06-19T07:32:24Z</time>
      </trkpt>
      <trkpt lat="48.68463" lon="1.96625">
        <ele>125.3</ele>
        <time>2025-06-19T07:32:31Z</time>
      </trkpt>
      <trkpt lat="48.68465" lon="1.96639">
        <ele>124.7</ele>
        <time>2025-06-19T07:32:38Z</time>
      </trkpt>
      <trkpt lat="48.6847" lon="1.96653">
        <ele>123.7</ele>
        <time>2025-06-19T07:32:45Z</time>
      </trkpt>
      <trkpt lat="48.68475" lon="1.96666">
        <ele>122.8</ele>
        <time>2025-06-19T07:32:52Z</time>
      </trkpt>
      <trkpt lat="48.6848" lon="1.9668">
        <ele>121.9</ele>
        <time>2025-06-19T07:32:59Z</time>
      </trkpt>
      <trkpt lat="48.68485" lon="1.96694">
        <ele>121.1</ele>
        <time>2025-06-19T07:33:06Z</time>
      </trkpt>
      <trkpt lat="48.6849" lon="1.96707">
        <ele>120.1</ele>
        <time>2025-06-19T07:33:13Z</time>
      </trkpt>
      <trkpt lat="48.68495" lon="1.9672">
        <ele>119.3</ele>
        <time>2025-06-19T07:33:20Z</time>
      </trkpt>
      <trkpt lat="48.68502" lon="1.9673">
        <ele>118.5</ele>
        <time>2025-06-19T07:33:27Z</time>
      </trkpt>
      <trkpt lat="48.68509" lon="1.9674">
        <ele>117.7</ele>
        <time>2025-06-19T07:33:35Z</time>
      </trkpt>
      <trkpt lat="48.68515" lon="1.96751">
        <ele>116.9</ele>
        <time>2025-06-19T07:33:43Z</time>
      </trkpt>
      <trkpt lat="48.68521" lon="1.96762">
        <ele>116</ele>
        <time>2025-06-19T07:33:59Z</time>
      </trkpt>
      <trkpt lat="48.68528" lon="1.96772">
        <ele>115.2</ele>
        <time>2025-06-19T07:34:08Z</time>
      </trkpt>
      <trkpt lat="48.68519" lon="1.96773">
        <ele>115.6</ele>
        <time>2025-06-19T07:34:55Z</time>
      </trkpt>
      <trkpt lat="48.68528" lon="1.96777">
        <ele>115</ele>
        <time>2025-06-19T07:35:25Z</time>
      </trkpt>
      <trkpt lat="48.68534" lon="1.96788">
        <ele>114.5</ele>
        <time>2025-06-19T07:35:32Z</time>
      </trkpt>
      <trkpt lat="48.68541" lon="1.96799">
        <ele>114.1</ele>
        <time>2025-06-19T07:35:39Z</time>
      </trkpt>
      <trkpt lat="48.68548" lon="1.96809">
        <ele>113.9</ele>
        <time>2025-06-19T07:35:46Z</time>
      </trkpt>
      <trkpt lat="48.68554" lon="1.96819">
        <ele>113.5</ele>
        <time>2025-06-19T07:35:53Z</time>
      </trkpt>
      <trkpt lat="48.6856" lon="1.96831">
        <ele>112.9</ele>
        <time>2025-06-19T07:36:01Z</time>
      </trkpt>
      <trkpt lat="48.68568" lon="1.96842">
        <ele>112.4</ele>
        <time>2025-06-19T07:36:09Z</time>
      </trkpt>
      <trkpt lat="48.68574" lon="1.96854">
        <ele>112.1</ele>
        <time>2025-06-19T07:36:17Z</time>
      </trkpt>
      <trkpt lat="48.68578" lon="1.96866">
        <ele>111.8</ele>
        <time>2025-06-19T07:36:24Z</time>
      </trkpt>
      <trkpt lat="48.68585" lon="1.96877">
        <ele>111.4</ele>
        <time>2025-06-19T07:36:31Z</time>
      </trkpt>
      <trkpt lat="48.6859" lon="1.96889">
        <ele>111</ele>
        <time>2025-06-19T07:36:38Z</time>
      </trkpt>
      <trkpt lat="48.68595" lon="1.96901">
        <ele>110.6</ele>
        <time>2025-06-19T07:36:45Z</time>
      </trkpt>
      <trkpt lat="48.68601" lon="1.96913">
        <ele>110.1</ele>
        <time>2025-06-19T07:36:52Z</time>
      </trkpt>
      <trkpt lat="48.68607" lon="1.96924">
        <ele>110</ele>
        <time>2025-06-19T07:36:59Z</time>
      </trkpt>
      <trkpt lat="48.68611" lon="1.96936">
        <ele>110</ele>
        <time>2025-06-19T07:37:06Z</time>
      </trkpt>
      <trkpt lat="48.68617" lon="1.96949">
        <ele>109.8</ele>
        <time>2025-06-19T07:37:13Z</time>
      </trkpt>
      <trkpt lat="48.68622" lon="1.96962">
        <ele>109.4</ele>
        <time>2025-06-19T07:37:20Z</time>
      </trkpt>
      <trkpt lat="48.68627" lon="1.96975">
        <ele>109</ele>
        <time>2025-06-19T07:37:28Z</time>
      </trkpt>
      <trkpt lat="48.68633" lon="1.96987">
        <ele>109</ele>
        <time>2025-06-19T07:37:35Z</time>
      </trkpt>
      <trkpt lat="48.68638" lon="1.97">
        <ele>109</ele>
        <time>2025-06-19T07:37:42Z</time>
      </trkpt>
      <trkpt lat="48.68643" lon="1.97013">
        <ele>108.5</ele>
        <time>2025-06-19T07:37:49Z</time>
      </trkpt>
      <trkpt lat="48.68648" lon="1.97026">
        <ele>108</ele>
        <time>2025-06-19T07:37:56Z</time>
      </trkpt>
      <trkpt lat="48.68652" lon="1.97039">
        <ele>107.8</ele>
        <time>2025-06-19T07:38:03Z</time>
      </trkpt>
      <trkpt lat="48.68657" lon="1.97052">
        <ele>107.4</ele>
        <time>2025-06-19T07:38:10Z</time>
      </trkpt>
      <trkpt lat="48.68661" lon="1.97065">
        <ele>107.1</ele>
        <time>2025-06-19T07:38:17Z</time>
      </trkpt>
      <trkpt lat="48.68663" lon="1.9708">
        <ele>107</ele>
        <time>2025-06-19T07:38:26Z</time>
      </trkpt>
      <trkpt lat="48.68671" lon="1.97086">
        <ele>106.9</ele>
        <time>2025-06-19T07:38:35Z</time>
      </trkpt>
      <trkpt lat="48.68672" lon="1.97101">
        <ele>106.9</ele>
        <time>2025-06-19T07:38:43Z</time>
      </trkpt>
      <trkpt lat="48.68676" lon="1.97113">
        <ele>107</ele>
        <time>2025-06-19T07:39:54Z</time>
      </trkpt>
      <trkpt lat="48.68667" lon="1.97112">
        <ele>107</ele>
        <time>2025-06-19T07:40:10Z</time>
      </trkpt>
      <trkpt lat="48.68658" lon="1.97108">
        <ele>107</ele>
        <time>2025-06-19T07:40:16Z</time>
      </trkpt>
      <trkpt lat="48.68649" lon="1.97104">
        <ele>107</ele>
        <time>2025-06-19T07:40:22Z</time>
      </trkpt>
      <trkpt lat="48.68639" lon="1.971">
        <ele>107</ele>
        <time>2025-06-19T07:40:29Z</time>
      </trkpt>
      <trkpt lat="48.68629" lon="1.97096">
        <ele>106.8</ele>
        <time>2025-06-19T07:40:36Z</time>
      </trkpt>
      <trkpt lat="48.68619" lon="1.97092">
        <ele>106.8</ele>
        <time>2025-06-19T07:40:43Z</time>
      </trkpt>
      <trkpt lat="48.68611" lon="1.97089">
        <ele>106.8</ele>
        <time>2025-06-19T07:40:49Z</time>
      </trkpt>
      <trkpt lat="48.68601" lon="1.97084">
        <ele>107</ele>
        <time>2025-06-19T07:40:56Z</time>
      </trkpt>
      <trkpt lat="48.68594" lon="1.97075">
        <ele>107.3</ele>
        <time>2025-06-19T07:41:06Z</time>
      </trkpt>
      <trkpt lat="48.68584" lon="1.97073">
        <ele>107.4</ele>
        <time>2025-06-19T07:41:14Z</time>
      </trkpt>
      <trkpt lat="48.68576" lon="1.97069">
        <ele>107.2</ele>
        <time>2025-06-19T07:41:21Z</time>
      </trkpt>
      <trkpt lat="48.68566" lon="1.97066">
        <ele>107</ele>
        <time>2025-06-19T07:41:28Z</time>
      </trkpt>
      <trkpt lat="48.68557" lon="1.97062">
        <ele>106.8</ele>
        <time>2025-06-19T07:41:36Z</time>
      </trkpt>
      <trkpt lat="48.68548" lon="1.97058">
        <ele>106.9</ele>
        <time>2025-06-19T07:41:43Z</time>
      </trkpt>
      <trkpt lat="48.68538" lon="1.97054">
        <ele>107</ele>
        <time>2025-06-19T07:41:50Z</time>
      </trkpt>
      <trkpt lat="48.68528" lon="1.97051">
        <ele>107</ele>
        <time>2025-06-19T07:41:58Z</time>
      </trkpt>
      <trkpt lat="48.6852" lon="1.97047">
        <ele>106.8</ele>
        <time>2025-06-19T07:42:05Z</time>
      </trkpt>
      <trkpt lat="48.6851" lon="1.97044">
        <ele>106.6</ele>
        <time>2025-06-19T07:42:12Z</time>
      </trkpt>
      <trkpt lat="48.68501" lon="1.97041">
        <ele>106.5</ele>
        <time>2025-06-19T07:42:19Z</time>
      </trkpt>
      <trkpt lat="48.68492" lon="1.97042">
        <ele>106.2</ele>
        <time>2025-06-19T07:42:28Z</time>
      </trkpt>
      <trkpt lat="48.68482" lon="1.97039">
        <ele>106</ele>
        <time>2025-06-19T07:42:35Z</time>
      </trkpt>
      <trkpt lat="48.68472" lon="1.97039">
        <ele>105.6</ele>
        <time>2025-06-19T07:42:41Z</time>
      </trkpt>
      <trkpt lat="48.68464" lon="1.97032">
        <ele>105.6</ele>
        <time>2025-06-19T07:42:48Z</time>
      </trkpt>
      <trkpt lat="48.68455" lon="1.97028">
        <ele>105.4</ele>
        <time>2025-06-19T07:42:55Z</time>
      </trkpt>
      <trkpt lat="48.68445" lon="1.97024">
        <ele>105.3</ele>
        <time>2025-06-19T07:43:02Z</time>
      </trkpt>
      <trkpt lat="48.68435" lon="1.9702">
        <ele>105.1</ele>
        <time>2025-06-19T07:43:09Z</time>
      </trkpt>
      <trkpt lat="48.68425" lon="1.97016">
        <ele>104.9</ele>
        <time>2025-06-19T07:43:16Z</time>
      </trkpt>
      <trkpt lat="48.68416" lon="1.97012">
        <ele>104.5</ele>
        <time>2025-06-19T07:43:23Z</time>
      </trkpt>
      <trkpt lat="48.68406" lon="1.97008">
        <ele>104</ele>
        <time>2025-06-19T07:43:30Z</time>
      </trkpt>
      <trkpt lat="48.68396" lon="1.9701">
        <ele>103.4</ele>
        <time>2025-06-19T07:43:37Z</time>
      </trkpt>
      <trkpt lat="48.68387" lon="1.97005">
        <ele>102.9</ele>
        <time>2025-06-19T07:43:45Z</time>
      </trkpt>
      <trkpt lat="48.68386" lon="1.96989">
        <ele>103.7</ele>
        <time>2025-06-19T07:44:26Z</time>
      </trkpt>
      <trkpt lat="48.68387" lon="1.96975">
        <ele>104.6</ele>
        <time>2025-06-19T07:44:37Z</time>
      </trkpt>
      <trkpt lat="48.68382" lon="1.96987">
        <ele>103.6</ele>
        <time>2025-06-19T07:45:10Z</time>
      </trkpt>
      <trkpt lat="48.68377" lon="1.96998">
        <ele>102.6</ele>
        <time>2025-06-19T07:45:17Z</time>
      </trkpt>
      <trkpt lat="48.68367" lon="1.97002">
        <ele>102.2</ele>
        <time>2025-06-19T07:45:25Z</time>
      </trkpt>
      <trkpt lat="48.6836" lon="1.97011">
        <ele>101.9</ele>
        <time>2025-06-19T07:45:45Z</time>
      </trkpt>
      <trkpt lat="48.68351" lon="1.97014">
        <ele>101.5</ele>
        <time>2025-06-19T07:45:56Z</time>
      </trkpt>
      <trkpt lat="48.68342" lon="1.97019">
        <ele>100.8</ele>
        <time>2025-06-19T07:46:08Z</time>
      </trkpt>
      <trkpt lat="48.68333" lon="1.97025">
        <ele>100.1</ele>
        <time>2025-06-19T07:46:26Z</time>
      </trkpt>
      <trkpt lat="48.68326" lon="1.97033">
        <ele>99.4</ele>
        <time>2025-06-19T07:46:36Z</time>
      </trkpt>
      <trkpt lat="48.68317" lon="1.97026">
        <ele>98.9</ele>
        <time>2025-06-19T07:46:56Z</time>
      </trkpt>
      <trkpt lat="48.68311" lon="1.97014">
        <ele>98.5</ele>
        <time>2025-06-19T07:47:15Z</time>
      </trkpt>
      <trkpt lat="48.68308" lon="1.97001">
        <ele>98.3</ele>
        <time>2025-06-19T07:47:23Z</time>
      </trkpt>
      <trkpt lat="48.68304" lon="1.96988">
        <ele>98.4</ele>
        <time>2025-06-19T07:47:31Z</time>
      </trkpt>
      <trkpt lat="48.68302" lon="1.96973">
        <ele>98.7</ele>
        <time>2025-06-19T07:47:45Z</time>
      </trkpt>
      <trkpt lat="48.68294" lon="1.96966">
        <ele>98.3</ele>
        <time>2025-06-19T07:48:17Z</time>
      </trkpt>
      <trkpt lat="48.68285" lon="1.96965">
        <ele>97.7</ele>
        <time>2025-06-19T07:48:26Z</time>
      </trkpt>
      <trkpt lat="48.68278" lon="1.96955">
        <ele>97.6</ele>
        <time>2025-06-19T07:48:34Z</time>
      </trkpt>
      <trkpt lat="48.6827" lon="1.96945">
        <ele>97.7</ele>
        <time>2025-06-19T07:48:47Z</time>
      </trkpt>
      <trkpt lat="48.68266" lon="1.96932">
        <ele>97.7</ele>
        <time>2025-06-19T07:48:57Z</time>
      </trkpt>
      <trkpt lat="48.6826" lon="1.96921">
        <ele>97.9</ele>
        <time>2025-06-19T07:49:06Z</time>
      </trkpt>
      <trkpt lat="48.68251" lon="1.96924">
        <ele>97.7</ele>
        <time>2025-06-19T07:49:15Z</time>
      </trkpt>
      <trkpt lat="48.68243" lon="1.9693">
        <ele>97.6</ele>
        <time>2025-06-19T07:49:30Z</time>
      </trkpt>
      <trkpt lat="48.68233" lon="1.96931">
        <ele>97.8</ele>
        <time>2025-06-19T07:49:41Z</time>
      </trkpt>
      <trkpt lat="48.68223" lon="1.96933">
        <ele>98</ele>
        <time>2025-06-19T07:49:50Z</time>
      </trkpt>
      <trkpt lat="48.68214" lon="1.96939">
        <ele>98.3</ele>
        <time>2025-06-19T07:49:59Z</time>
      </trkpt>
      <trkpt lat="48.68205" lon="1.96939">
        <ele>98.6</ele>
        <time>2025-06-19T07:50:15Z</time>
      </trkpt>
      <trkpt lat="48.68197" lon="1.96948">
        <ele>99</ele>
        <time>2025-06-19T07:50:46Z</time>
      </trkpt>
      <trkpt lat="48.68188" lon="1.96955">
        <ele>100</ele>
        <time>2025-06-19T07:50:54Z</time>
      </trkpt>
      <trkpt lat="48.68179" lon="1.96957">
        <ele>101.1</ele>
        <time>2025-06-19T07:51:02Z</time>
      </trkpt>
      <trkpt lat="48.68169" lon="1.96961">
        <ele>102.3</ele>
        <time>2025-06-19T07:51:11Z</time>
      </trkpt>
      <trkpt lat="48.6816" lon="1.96969">
        <ele>103.6</ele>
        <time>2025-06-19T07:51:20Z</time>
      </trkpt>
      <trkpt lat="48.68151" lon="1.96968">
        <ele>104.6</ele>
        <time>2025-06-19T07:51:28Z</time>
      </trkpt>
      <trkpt lat="48.68141" lon="1.9697">
        <ele>105.7</ele>
        <time>2025-06-19T07:51:39Z</time>
      </trkpt>
      <trkpt lat="48.68133" lon="1.96975">
        <ele>106.5</ele>
        <time>2025-06-19T07:51:49Z</time>
      </trkpt>
      <trkpt lat="48.68139" lon="1.96986">
        <ele>106</ele>
        <time>2025-06-19T07:52:04Z</time>
      </trkpt>
      <trkpt lat="48.68141" lon="1.97">
        <ele>105.8</ele>
        <time>2025-06-19T07:52:12Z</time>
      </trkpt>
      <trkpt lat="48.68137" lon="1.97012">
        <ele>106.3</ele>
        <time>2025-06-19T07:52:18Z</time>
      </trkpt>
      <trkpt lat="48.68137" lon="1.97027">
        <ele>106.3</ele>
        <time>2025-06-19T07:52:25Z</time>
      </trkpt>
      <trkpt lat="48.68138" lon="1.97042">
        <ele>106.2</ele>
        <time>2025-06-19T07:52:32Z</time>
      </trkpt>
      <trkpt lat="48.68135" lon="1.97056">
        <ele>106.8</ele>
        <time>2025-06-19T07:52:40Z</time>
      </trkpt>
      <trkpt lat="48.68133" lon="1.9707">
        <ele>106.7</ele>
        <time>2025-06-19T07:52:47Z</time>
      </trkpt>
      <trkpt lat="48.68131" lon="1.97084">
        <ele>106.6</ele>
        <time>2025-06-19T07:52:54Z</time>
      </trkpt>
      <trkpt lat="48.6813" lon="1.97099">
        <ele>106.3</ele>
        <time>2025-06-19T07:53:01Z</time>
      </trkpt>
      <trkpt lat="48.68127" lon="1.97114">
        <ele>106.6</ele>
        <time>2025-06-19T07:53:08Z</time>
      </trkpt>
      <trkpt lat="48.6812" lon="1.97126">
        <ele>108</ele>
        <time>2025-06-19T07:53:15Z</time>
      </trkpt>
      <trkpt lat="48.68114" lon="1.97138">
        <ele>109.3</ele>
        <time>2025-06-19T07:53:22Z</time>
      </trkpt>
      <trkpt lat="48.68111" lon="1.97151">
        <ele>109.7</ele>
        <time>2025-06-19T07:53:28Z</time>
      </trkpt>
      <trkpt lat="48.68109" lon="1.97166">
        <ele>109.7</ele>
        <time>2025-06-19T07:53:43Z</time>
      </trkpt>
      <trkpt lat="48.68109" lon="1.9718">
        <ele>109.1</ele>
        <time>2025-06-19T07:53:49Z</time>
      </trkpt>
      <trkpt lat="48.68107" lon="1.97195">
        <ele>109</ele>
        <time>2025-06-19T07:53:57Z</time>
      </trkpt>
      <trkpt lat="48.68106" lon="1.9721">
        <ele>108.8</ele>
        <time>2025-06-19T07:54:04Z</time>
      </trkpt>
      <trkpt lat="48.68105" lon="1.97225">
        <ele>108.4</ele>
        <time>2025-06-19T07:54:11Z</time>
      </trkpt>
      <trkpt lat="48.68103" lon="1.97239">
        <ele>108.3</ele>
        <time>2025-06-19T07:54:18Z</time>
      </trkpt>
      <trkpt lat="48.68102" lon="1.97252">
        <ele>108.3</ele>
        <time>2025-06-19T07:54:25Z</time>
      </trkpt>
      <trkpt lat="48.68102" lon="1.97266">
        <ele>108.2</ele>
        <time>2025-06-19T07:54:32Z</time>
      </trkpt>
      <trkpt lat="48.681" lon="1.9728">
        <ele>108.8</ele>
        <time>2025-06-19T07:54:39Z</time>
      </trkpt>
      <trkpt lat="48.68102" lon="1.97294">
        <ele>108.7</ele>
        <time>2025-06-19T07:54:47Z</time>
      </trkpt>
      <trkpt lat="48.68106" lon="1.97308">
        <ele>108.2</ele>
        <time>2025-06-19T07:54:56Z</time>
      </trkpt>
      <trkpt lat="48.68111" lon="1.97321">
        <ele>107.5</ele>
        <time>2025-06-19T07:55:04Z</time>
      </trkpt>
      <trkpt lat="48.68117" lon="1.97333">
        <ele>107.4</ele>
        <time>2025-06-19T07:55:12Z</time>
      </trkpt>
      <trkpt lat="48.68123" lon="1.97344">
        <ele>107.1</ele>
        <time>2025-06-19T07:55:19Z</time>
      </trkpt>
      <trkpt lat="48.6813" lon="1.97355">
        <ele>107</ele>
        <time>2025-06-19T07:55:27Z</time>
      </trkpt>
      <trkpt lat="48.68139" lon="1.9736">
        <ele>107</ele>
        <time>2025-06-19T07:55:35Z</time>
      </trkpt>
      <trkpt lat="48.68146" lon="1.97368">
        <ele>107</ele>
        <time>2025-06-19T07:55:43Z</time>
      </trkpt>
      <trkpt lat="48.68156" lon="1.97372">
        <ele>106.6</ele>
        <time>2025-06-19T07:55:51Z</time>
      </trkpt>
      <trkpt lat="48.68163" lon="1.9738">
        <ele>106.6</ele>
        <time>2025-06-19T07:55:59Z</time>
      </trkpt>
      <trkpt lat="48.68169" lon="1.97392">
        <ele>107.1</ele>
        <time>2025-06-19T07:56:08Z</time>
      </trkpt>
      <trkpt lat="48.68169" lon="1.97406">
        <ele>108.1</ele>
        <time>2025-06-19T07:56:17Z</time>
      </trkpt>
      <trkpt lat="48.68168" lon="1.97421">
        <ele>108.9</ele>
        <time>2025-06-19T07:56:26Z</time>
      </trkpt>
      <trkpt lat="48.68164" lon="1.97435">
        <ele>109.1</ele>
        <time>2025-06-19T07:56:35Z</time>
      </trkpt>
      <trkpt lat="48.68159" lon="1.97448">
        <ele>109.4</ele>
        <time>2025-06-19T07:56:45Z</time>
      </trkpt>
      <trkpt lat="48.68153" lon="1.97458">
        <ele>109.8</ele>
        <time>2025-06-19T07:56:54Z</time>
      </trkpt>
      <trkpt lat="48.68157" lon="1.97471">
        <ele>109.1</ele>
        <time>2025-06-19T07:57:13Z</time>
      </trkpt>
      <trkpt lat="48.68154" lon="1.97484">
        <ele>109.2</ele>
        <time>2025-06-19T07:57:21Z</time>
      </trkpt>
      <trkpt lat="48.68152" lon="1.97498">
        <ele>109.2</ele>
        <time>2025-06-19T07:57:29Z</time>
      </trkpt>
      <trkpt lat="48.6815" lon="1.97512">
        <ele>109.2</ele>
        <time>2025-06-19T07:57:38Z</time>
      </trkpt>
      <trkpt lat="48.68145" lon="1.97526">
        <ele>109.4</ele>
        <time>2025-06-19T07:57:48Z</time>
      </trkpt>
      <trkpt lat="48.68143" lon="1.9754">
        <ele>109.2</ele>
        <time>2025-06-19T07:57:58Z</time>
      </trkpt>
      <trkpt lat="48.68141" lon="1.97554">
        <ele>108.9</ele>
        <time>2025-06-19T07:58:10Z</time>
      </trkpt>
      <trkpt lat="48.68141" lon="1.97569">
        <ele>109.3</ele>
        <time>2025-06-19T07:58:21Z</time>
      </trkpt>
      <trkpt lat="48.68137" lon="1.97582">
        <ele>110.1</ele>
        <time>2025-06-19T07:58:31Z</time>
      </trkpt>
      <trkpt lat="48.68134" lon="1.97596">
        <ele>110.9</ele>
        <time>2025-06-19T07:58:41Z</time>
      </trkpt>
      <trkpt lat="48.6813" lon="1.97609">
        <ele>111.9</ele>
        <time>2025-06-19T07:58:52Z</time>
      </trkpt>
      <trkpt lat="48.68127" lon="1.97623">
        <ele>113.2</ele>
        <time>2025-06-19T07:59:04Z</time>
      </trkpt>
      <trkpt lat="48.6812" lon="1.97634">
        <ele>114.6</ele>
        <time>2025-06-19T07:59:18Z</time>
      </trkpt>
      <trkpt lat="48.6813" lon="1.97633">
        <ele>113.5</ele>
        <time>2025-06-19T07:59:39Z</time>
      </trkpt>
      <trkpt lat="48.68139" lon="1.97627">
        <ele>112.2</ele>
        <time>2025-06-19T07:59:48Z</time>
      </trkpt>
      <trkpt lat="48.68148" lon="1.97626">
        <ele>111.4</ele>
        <time>2025-06-19T07:59:56Z</time>
      </trkpt>
      <trkpt lat="48.68156" lon="1.97619">
        <ele>110.3</ele>
        <time>2025-06-19T08:00:05Z</time>
      </trkpt>
      <trkpt lat="48.68165" lon="1.97619">
        <ele>109.7</ele>
        <time>2025-06-19T08:00:12Z</time>
      </trkpt>
      <trkpt lat="48.68175" lon="1.97623">
        <ele>109.4</ele>
        <time>2025-06-19T08:00:18Z</time>
      </trkpt>
      <trkpt lat="48.68184" lon="1.97618">
        <ele>108.7</ele>
        <time>2025-06-19T08:00:26Z</time>
      </trkpt>
      <trkpt lat="48.6819" lon="1.97608">
        <ele>108</ele>
        <time>2025-06-19T08:00:33Z</time>
      </trkpt>
      <trkpt lat="48.682" lon="1.97603">
        <ele>107.2</ele>
        <time>2025-06-19T08:00:41Z</time>
      </trkpt>
      <trkpt lat="48.6821" lon="1.976">
        <ele>106.6</ele>
        <time>2025-06-19T08:00:49Z</time>
      </trkpt>
      <trkpt lat="48.68219" lon="1.97592">
        <ele>105.7</ele>
        <time>2025-06-19T08:00:57Z</time>
      </trkpt>
      <trkpt lat="48.68228" lon="1.97593">
        <ele>105.6</ele>
        <time>2025-06-19T08:01:04Z</time>
      </trkpt>
      <trkpt lat="48.68235" lon="1.97602">
        <ele>106</ele>
        <time>2025-06-19T08:01:12Z</time>
      </trkpt>
      <trkpt lat="48.68244" lon="1.976">
        <ele>105.7</ele>
        <time>2025-06-19T08:01:20Z</time>
      </trkpt>
      <trkpt lat="48.68248" lon="1.97613">
        <ele>106.1</ele>
        <time>2025-06-19T08:01:30Z</time>
      </trkpt>
      <trkpt lat="48.68247" lon="1.97628">
        <ele>106.7</ele>
        <time>2025-06-19T08:01:38Z</time>
      </trkpt>
      <trkpt lat="48.68244" lon="1.97642">
        <ele>107.2</ele>
        <time>2025-06-19T08:01:47Z</time>
      </trkpt>
      <trkpt lat="48.68248" lon="1.97656">
        <ele>107.1</ele>
        <time>2025-06-19T08:01:56Z</time>
      </trkpt>
      <trkpt lat="48.68249" lon="1.97671">
        <ele>107</ele>
        <time>2025-06-19T08:02:04Z</time>
      </trkpt>
      <trkpt lat="48.68251" lon="1.97685">
        <ele>107</ele>
        <time>2025-06-19T08:02:11Z</time>
      </trkpt>
      <trkpt lat="48.68249" lon="1.97698">
        <ele>107</ele>
        <time>2025-06-19T08:02:18Z</time>
      </trkpt>
      <trkpt lat="48.68254" lon="1.97711">
        <ele>106.7</ele>
        <time>2025-06-19T08:02:26Z</time>
      </trkpt>
      <trkpt lat="48.68264" lon="1.97711">
        <ele>106</ele>
        <time>2025-06-19T08:02:34Z</time>
      </trkpt>
      <trkpt lat="48.68265" lon="1.97725">
        <ele>106</ele>
        <time>2025-06-19T08:02:42Z</time>
      </trkpt>
      <trkpt lat="48.68259" lon="1.97736">
        <ele>106.5</ele>
        <time>2025-06-19T08:02:50Z</time>
      </trkpt>
      <trkpt lat="48.68254" lon="1.97747">
        <ele>106.8</ele>
        <time>2025-06-19T08:02:57Z</time>
      </trkpt>
      <trkpt lat="48.68247" lon="1.97756">
        <ele>107.1</ele>
        <time>2025-06-19T08:03:05Z</time>
      </trkpt>
      <trkpt lat="48.68245" lon="1.9777">
        <ele>107.2</ele>
        <time>2025-06-19T08:03:13Z</time>
      </trkpt>
      <trkpt lat="48.68237" lon="1.9778">
        <ele>107.5</ele>
        <time>2025-06-19T08:03:21Z</time>
      </trkpt>
      <trkpt lat="48.68235" lon="1.97794">
        <ele>107.5</ele>
        <time>2025-06-19T08:03:30Z</time>
      </trkpt>
      <trkpt lat="48.68238" lon="1.97807">
        <ele>107.4</ele>
        <time>2025-06-19T08:03:38Z</time>
      </trkpt>
      <trkpt lat="48.68242" lon="1.9782">
        <ele>107.3</ele>
        <time>2025-06-19T08:03:46Z</time>
      </trkpt>
      <trkpt lat="48.6825" lon="1.9783">
        <ele>107</ele>
        <time>2025-06-19T08:03:55Z</time>
      </trkpt>
      <trkpt lat="48.68251" lon="1.97844">
        <ele>107</ele>
        <time>2025-06-19T08:04:02Z</time>
      </trkpt>
      <trkpt lat="48.6825" lon="1.97859">
        <ele>107</ele>
        <time>2025-06-19T08:04:10Z</time>
      </trkpt>
      <trkpt lat="48.68248" lon="1.97874">
        <ele>107.1</ele>
        <time>2025-06-19T08:04:17Z</time>
      </trkpt>
      <trkpt lat="48.68248" lon="1.97889">
        <ele>107.1</ele>
        <time>2025-06-19T08:04:24Z</time>
      </trkpt>
      <trkpt lat="48.68252" lon="1.97903">
        <ele>106.4</ele>
        <time>2025-06-19T08:04:31Z</time>
      </trkpt>
      <trkpt lat="48.68251" lon="1.97918">
        <ele>106</ele>
        <time>2025-06-19T08:04:38Z</time>
      </trkpt>
      <trkpt lat="48.68244" lon="1.97929">
        <ele>106.2</ele>
        <time>2025-06-19T08:04:44Z</time>
      </trkpt>
      <trkpt lat="48.68236" lon="1.9794">
        <ele>106.5</ele>
        <time>2025-06-19T08:04:51Z</time>
      </trkpt>
      <trkpt lat="48.68229" lon="1.97949">
        <ele>106.6</ele>
        <time>2025-06-19T08:04:58Z</time>
      </trkpt>
      <trkpt lat="48.68219" lon="1.97952">
        <ele>106.9</ele>
        <time>2025-06-19T08:05:05Z</time>
      </trkpt>
      <trkpt lat="48.68216" lon="1.97966">
        <ele>106.6</ele>
        <time>2025-06-19T08:05:14Z</time>
      </trkpt>
      <trkpt lat="48.68209" lon="1.97977">
        <ele>106.9</ele>
        <time>2025-06-19T08:05:21Z</time>
      </trkpt>
      <trkpt lat="48.68205" lon="1.9799">
        <ele>106.9</ele>
        <time>2025-06-19T08:05:28Z</time>
      </trkpt>
      <trkpt lat="48.68205" lon="1.98004">
        <ele>106.6</ele>
        <time>2025-06-19T08:05:35Z</time>
      </trkpt>
      <trkpt lat="48.682" lon="1.98017">
        <ele>106.8</ele>
        <time>2025-06-19T08:05:43Z</time>
      </trkpt>
      <trkpt lat="48.68195" lon="1.9803">
        <ele>107</ele>
        <time>2025-06-19T08:05:50Z</time>
      </trkpt>
      <trkpt lat="48.68199" lon="1.98043">
        <ele>106.8</ele>
        <time>2025-06-19T08:05:58Z</time>
      </trkpt>
      <trkpt lat="48.68204" lon="1.98055">
        <ele>106.6</ele>
        <time>2025-06-19T08:06:06Z</time>
      </trkpt>
      <trkpt lat="48.6821" lon="1.98065">
        <ele>106.8</ele>
        <time>2025-06-19T08:06:16Z</time>
      </trkpt>
      <trkpt lat="48.68218" lon="1.98076">
        <ele>106.9</ele>
        <time>2025-06-19T08:06:25Z</time>
      </trkpt>
      <trkpt lat="48.68227" lon="1.98083">
        <ele>107</ele>
        <time>2025-06-19T08:06:32Z</time>
      </trkpt>
      <trkpt lat="48.68236" lon="1.98086">
        <ele>107.2</ele>
        <time>2025-06-19T08:06:40Z</time>
      </trkpt>
      <trkpt lat="48.68245" lon="1.98093">
        <ele>107.7</ele>
        <time>2025-06-19T08:06:48Z</time>
      </trkpt>
      <trkpt lat="48.68254" lon="1.98097">
        <ele>108.2</ele>
        <time>2025-06-19T08:06:56Z</time>
      </trkpt>
      <trkpt lat="48.68263" lon="1.98093">
        <ele>108.3</ele>
        <time>2025-06-19T08:07:03Z</time>
      </trkpt>
      <trkpt lat="48.68272" lon="1.98091">
        <ele>108.6</ele>
        <time>2025-06-19T08:07:11Z</time>
      </trkpt>
      <trkpt lat="48.68281" lon="1.98087">
        <ele>108.5</ele>
        <time>2025-06-19T08:07:19Z</time>
      </trkpt>
      <trkpt lat="48.6829" lon="1.98084">
        <ele>108.4</ele>
        <time>2025-06-19T08:07:26Z</time>
      </trkpt>
      <trkpt lat="48.68299" lon="1.98079">
        <ele>108.6</ele>
        <time>2025-06-19T08:07:33Z</time>
      </trkpt>
      <trkpt lat="48.68308" lon="1.9808">
        <ele>109</ele>
        <time>2025-06-19T08:07:40Z</time>
      </trkpt>
      <trkpt lat="48.68318" lon="1.98081">
        <ele>109.3</ele>
        <time>2025-06-19T08:07:47Z</time>
      </trkpt>
      <trkpt lat="48.68327" lon="1.98084">
        <ele>109.8</ele>
        <time>2025-06-19T08:07:54Z</time>
      </trkpt>
      <trkpt lat="48.68336" lon="1.98087">
        <ele>110.2</ele>
        <time>2025-06-19T08:08:02Z</time>
      </trkpt>
      <trkpt lat="48.68345" lon="1.9809">
        <ele>110.5</ele>
        <time>2025-06-19T08:10:54Z</time>
      </trkpt>
      <trkpt lat="48.68354" lon="1.98091">
        <ele>110.5</ele>
        <time>2025-06-19T08:11:01Z</time>
      </trkpt>
      <trkpt lat="48.68363" lon="1.98094">
        <ele>110.9</ele>
        <time>2025-06-19T08:11:08Z</time>
      </trkpt>
      <trkpt lat="48.68372" lon="1.98098">
        <ele>111.7</ele>
        <time>2025-06-19T08:11:15Z</time>
      </trkpt>
      <trkpt lat="48.68382" lon="1.98103">
        <ele>112.7</ele>
        <time>2025-06-19T08:11:23Z</time>
      </trkpt>
      <trkpt lat="48.68391" lon="1.98103">
        <ele>113.2</ele>
        <time>2025-06-19T08:11:30Z</time>
      </trkpt>
      <trkpt lat="48.68401" lon="1.98104">
        <ele>113.3</ele>
        <time>2025-06-19T08:11:38Z</time>
      </trkpt>
      <trkpt lat="48.68411" lon="1.98107">
        <ele>113.7</ele>
        <time>2025-06-19T08:11:46Z</time>
      </trkpt>
      <trkpt lat="48.68421" lon="1.98107">
        <ele>113.7</ele>
        <time>2025-06-19T08:11:53Z</time>
      </trkpt>
      <trkpt lat="48.68431" lon="1.98109">
        <ele>113.9</ele>
        <time>2025-06-19T08:12:00Z</time>
      </trkpt>
      <trkpt lat="48.6844" lon="1.98113">
        <ele>114.2</ele>
        <time>2025-06-19T08:12:07Z</time>
      </trkpt>
      <trkpt lat="48.6845" lon="1.98115">
        <ele>114.4</ele>
        <time>2025-06-19T08:12:13Z</time>
      </trkpt>
      <trkpt lat="48.68459" lon="1.98117">
        <ele>114.5</ele>
        <time>2025-06-19T08:12:19Z</time>
      </trkpt>
      <trkpt lat="48.68469" lon="1.9812">
        <ele>114.6</ele>
        <time>2025-06-19T08:12:26Z</time>
      </trkpt>
      <trkpt lat="48.68478" lon="1.98123">
        <ele>114.6</ele>
        <time>2025-06-19T08:12:37Z</time>
      </trkpt>
      <trkpt lat="48.68487" lon="1.98122">
        <ele>114.2</ele>
        <time>2025-06-19T08:12:43Z</time>
      </trkpt>
      <trkpt lat="48.68497" lon="1.98121">
        <ele>113.8</ele>
        <time>2025-06-19T08:12:49Z</time>
      </trkpt>
      <trkpt lat="48.68506" lon="1.98124">
        <ele>113.7</ele>
        <time>2025-06-19T08:12:55Z</time>
      </trkpt>
      <trkpt lat="48.68515" lon="1.98127">
        <ele>113.6</ele>
        <time>2025-06-19T08:13:02Z</time>
      </trkpt>
      <trkpt lat="48.68525" lon="1.98127">
        <ele>113.2</ele>
        <time>2025-06-19T08:13:09Z</time>
      </trkpt>
      <trkpt lat="48.68535" lon="1.98127">
        <ele>112.7</ele>
        <time>2025-06-19T08:13:15Z</time>
      </trkpt>
      <trkpt lat="48.68545" lon="1.98127">
        <ele>111.9</ele>
        <time>2025-06-19T08:13:22Z</time>
      </trkpt>
      <trkpt lat="48.68555" lon="1.98125">
        <ele>111.1</ele>
        <time>2025-06-19T08:13:29Z</time>
      </trkpt>
      <trkpt lat="48.68565" lon="1.98125">
        <ele>110.2</ele>
        <time>2025-06-19T08:13:36Z</time>
      </trkpt>
      <trkpt lat="48.68575" lon="1.98125">
        <ele>109.3</ele>
        <time>2025-06-19T08:13:43Z</time>
      </trkpt>
      <trkpt lat="48.68585" lon="1.98124">
        <ele>108.4</ele>
        <time>2025-06-19T08:13:50Z</time>
      </trkpt>
      <trkpt lat="48.68595" lon="1.98123">
        <ele>107.6</ele>
        <time>2025-06-19T08:13:57Z</time>
      </trkpt>
      <trkpt lat="48.68596" lon="1.98137">
        <ele>108</ele>
        <time>2025-06-19T08:14:13Z</time>
      </trkpt>
      <trkpt lat="48.68606" lon="1.98137">
        <ele>107.3</ele>
        <time>2025-06-19T08:14:20Z</time>
      </trkpt>
      <trkpt lat="48.68614" lon="1.98145">
        <ele>107</ele>
        <time>2025-06-19T08:14:27Z</time>
      </trkpt>
      <trkpt lat="48.68622" lon="1.98155">
        <ele>106.8</ele>
        <time>2025-06-19T08:14:34Z</time>
      </trkpt>
      <trkpt lat="48.68629" lon="1.98164">
        <ele>106.6</ele>
        <time>2025-06-19T08:14:45Z</time>
      </trkpt>
      <trkpt lat="48.68637" lon="1.98173">
        <ele>106.3</ele>
        <time>2025-06-19T08:14:52Z</time>
      </trkpt>
      <trkpt lat="48.68645" lon="1.98181">
        <ele>106.4</ele>
        <time>2025-06-19T08:15:00Z</time>
      </trkpt>
      <trkpt lat="48.68653" lon="1.98189">
        <ele>106.7</ele>
        <time>2025-06-19T08:15:07Z</time>
      </trkpt>
      <trkpt lat="48.68661" lon="1.98195">
        <ele>107</ele>
        <time>2025-06-19T08:15:14Z</time>
      </trkpt>
      <trkpt lat="48.68671" lon="1.98201">
        <ele>107.2</ele>
        <time>2025-06-19T08:15:22Z</time>
      </trkpt>
      <trkpt lat="48.68679" lon="1.98208">
        <ele>107.5</ele>
        <time>2025-06-19T08:15:29Z</time>
      </trkpt>
      <trkpt lat="48.68688" lon="1.98213">
        <ele>107.9</ele>
        <time>2025-06-19T08:15:36Z</time>
      </trkpt>
      <trkpt lat="48.68698" lon="1.98215">
        <ele>108.3</ele>
        <time>2025-06-19T08:15:43Z</time>
      </trkpt>
      <trkpt lat="48.68707" lon="1.98215">
        <ele>108.7</ele>
        <time>2025-06-19T08:15:52Z</time>
      </trkpt>
      <trkpt lat="48.68716" lon="1.98212">
        <ele>108.7</ele>
        <time>2025-06-19T08:16:00Z</time>
      </trkpt>
      <trkpt lat="48.68725" lon="1.98207">
        <ele>108.3</ele>
        <time>2025-06-19T08:16:07Z</time>
      </trkpt>
      <trkpt lat="48.68735" lon="1.98202">
        <ele>107.7</ele>
        <time>2025-06-19T08:16:14Z</time>
      </trkpt>
      <trkpt lat="48.68743" lon="1.98196">
        <ele>107.1</ele>
        <time>2025-06-19T08:16:21Z</time>
      </trkpt>
      <trkpt lat="48.68753" lon="1.98194">
        <ele>107</ele>
        <time>2025-06-19T08:16:31Z</time>
      </trkpt>
      <trkpt lat="48.68762" lon="1.98187">
        <ele>106.5</ele>
        <time>2025-06-19T08:16:39Z</time>
      </trkpt>
      <trkpt lat="48.68771" lon="1.98189">
        <ele>106.6</ele>
        <time>2025-06-19T08:16:46Z</time>
      </trkpt>
      <trkpt lat="48.68779" lon="1.98198">
        <ele>107</ele>
        <time>2025-06-19T08:16:53Z</time>
      </trkpt>
      <trkpt lat="48.68786" lon="1.98207">
        <ele>106.7</ele>
        <time>2025-06-19T08:17:00Z</time>
      </trkpt>
      <trkpt lat="48.68793" lon="1.98218">
        <ele>106.5</ele>
        <time>2025-06-19T08:17:07Z</time>
      </trkpt>
      <trkpt lat="48.688" lon="1.98229">
        <ele>106.3</ele>
        <time>2025-06-19T08:17:14Z</time>
      </trkpt>
      <trkpt lat="48.68803" lon="1.98244">
        <ele>106.1</ele>
        <time>2025-06-19T08:17:21Z</time>
      </trkpt>
      <trkpt lat="48.68807" lon="1.98257">
        <ele>106.2</ele>
        <time>2025-06-19T08:17:28Z</time>
      </trkpt>
      <trkpt lat="48.68811" lon="1.98271">
        <ele>106.2</ele>
        <time>2025-06-19T08:17:36Z</time>
      </trkpt>
      <trkpt lat="48.68815" lon="1.98284">
        <ele>106</ele>
        <time>2025-06-19T08:17:43Z</time>
      </trkpt>
      <trkpt lat="48.68818" lon="1.98299">
        <ele>106</ele>
        <time>2025-06-19T08:17:51Z</time>
      </trkpt>
      <trkpt lat="48.68819" lon="1.98313">
        <ele>106.4</ele>
        <time>2025-06-19T08:17:58Z</time>
      </trkpt>
      <trkpt lat="48.68816" lon="1.98326">
        <ele>107.3</ele>
        <time>2025-06-19T08:18:05Z</time>
      </trkpt>
      <trkpt lat="48.68814" lon="1.9834">
        <ele>108.1</ele>
        <time>2025-06-19T08:18:12Z</time>
      </trkpt>
      <trkpt lat="48.68811" lon="1.98354">
        <ele>108.8</ele>
        <time>2025-06-19T08:18:19Z</time>
      </trkpt>
      <trkpt lat="48.68809" lon="1.98369">
        <ele>109.7</ele>
        <time>2025-06-19T08:18:27Z</time>
      </trkpt>
      <trkpt lat="48.68818" lon="1.98373">
        <ele>110.5</ele>
        <time>2025-06-19T08:18:34Z</time>
      </trkpt>
      <trkpt lat="48.68828" lon="1.98374">
        <ele>111.1</ele>
        <time>2025-06-19T08:18:42Z</time>
      </trkpt>
      <trkpt lat="48.68837" lon="1.98376">
        <ele>111.8</ele>
        <time>2025-06-19T08:18:50Z</time>
      </trkpt>
      <trkpt lat="48.68846" lon="1.98381">
        <ele>112.9</ele>
        <time>2025-06-19T08:18:57Z</time>
      </trkpt>
      <trkpt lat="48.68855" lon="1.98383">
        <ele>113.8</ele>
        <time>2025-06-19T08:19:04Z</time>
      </trkpt>
      <trkpt lat="48.68864" lon="1.98388">
        <ele>114.9</ele>
        <time>2025-06-19T08:19:11Z</time>
      </trkpt>
      <trkpt lat="48.68874" lon="1.98391">
        <ele>115.8</ele>
        <time>2025-06-19T08:19:19Z</time>
      </trkpt>
      <trkpt lat="48.68882" lon="1.98398">
        <ele>117.2</ele>
        <time>2025-06-19T08:19:26Z</time>
      </trkpt>
      <trkpt lat="48.68889" lon="1.98409">
        <ele>118.8</ele>
        <time>2025-06-19T08:19:33Z</time>
      </trkpt>
      <trkpt lat="48.68895" lon="1.98419">
        <ele>119.9</ele>
        <time>2025-06-19T08:19:40Z</time>
      </trkpt>
      <trkpt lat="48.68901" lon="1.98432">
        <ele>121.2</ele>
        <time>2025-06-19T08:19:48Z</time>
      </trkpt>
      <trkpt lat="48.68907" lon="1.98442">
        <ele>121.8</ele>
        <time>2025-06-19T08:19:55Z</time>
      </trkpt>
      <trkpt lat="48.68914" lon="1.98454">
        <ele>122.6</ele>
        <time>2025-06-19T08:20:03Z</time>
      </trkpt>
      <trkpt lat="48.68921" lon="1.98466">
        <ele>123.6</ele>
        <time>2025-06-19T08:20:11Z</time>
      </trkpt>
      <trkpt lat="48.68926" lon="1.98478">
        <ele>124.5</ele>
        <time>2025-06-19T08:20:18Z</time>
      </trkpt>
      <trkpt lat="48.68931" lon="1.9849">
        <ele>125.4</ele>
        <time>2025-06-19T08:20:25Z</time>
      </trkpt>
      <trkpt lat="48.68937" lon="1.98502">
        <ele>126.3</ele>
        <time>2025-06-19T08:20:32Z</time>
      </trkpt>
      <trkpt lat="48.68944" lon="1.98512">
        <ele>126.8</ele>
        <time>2025-06-19T08:20:40Z</time>
      </trkpt>
      <trkpt lat="48.68947" lon="1.98526">
        <ele>128.3</ele>
        <time>2025-06-19T08:20:47Z</time>
      </trkpt>
      <trkpt lat="48.68953" lon="1.98539">
        <ele>129.1</ele>
        <time>2025-06-19T08:20:55Z</time>
      </trkpt>
      <trkpt lat="48.68957" lon="1.98552">
        <ele>130.2</ele>
        <time>2025-06-19T08:21:02Z</time>
      </trkpt>
      <trkpt lat="48.68962" lon="1.98565">
        <ele>131.5</ele>
        <time>2025-06-19T08:21:10Z</time>
      </trkpt>
      <trkpt lat="48.68965" lon="1.98579">
        <ele>133.2</ele>
        <time>2025-06-19T08:21:17Z</time>
      </trkpt>
      <trkpt lat="48.68969" lon="1.98592">
        <ele>134.4</ele>
        <time>2025-06-19T08:21:25Z</time>
      </trkpt>
      <trkpt lat="48.68973" lon="1.98606">
        <ele>135.4</ele>
        <time>2025-06-19T08:21:33Z</time>
      </trkpt>
      <trkpt lat="48.68977" lon="1.9862">
        <ele>136.2</ele>
        <time>2025-06-19T08:21:41Z</time>
      </trkpt>
      <trkpt lat="48.68984" lon="1.98629">
        <ele>135.9</ele>
        <time>2025-06-19T08:21:49Z</time>
      </trkpt>
      <trkpt lat="48.68986" lon="1.98643">
        <ele>136.2</ele>
        <time>2025-06-19T08:21:55Z</time>
      </trkpt>
      <trkpt lat="48.68987" lon="1.98658">
        <ele>136.6</ele>
        <time>2025-06-19T08:22:03Z</time>
      </trkpt>
      <trkpt lat="48.68988" lon="1.98673">
        <ele>137</ele>
        <time>2025-06-19T08:22:11Z</time>
      </trkpt>
      <trkpt lat="48.68992" lon="1.98687">
        <ele>136.9</ele>
        <time>2025-06-19T08:22:19Z</time>
      </trkpt>
      <trkpt lat="48.68994" lon="1.987">
        <ele>137.3</ele>
        <time>2025-06-19T08:22:26Z</time>
      </trkpt>
      <trkpt lat="48.68994" lon="1.98715">
        <ele>138.6</ele>
        <time>2025-06-19T08:22:35Z</time>
      </trkpt>
      <trkpt lat="48.68994" lon="1.98729">
        <ele>140.4</ele>
        <time>2025-06-19T08:22:43Z</time>
      </trkpt>
      <trkpt lat="48.68997" lon="1.98743">
        <ele>141.7</ele>
        <time>2025-06-19T08:22:50Z</time>
      </trkpt>
      <trkpt lat="48.69006" lon="1.9875">
        <ele>141.5</ele>
        <time>2025-06-19T08:22:58Z</time>
      </trkpt>
      <trkpt lat="48.69015" lon="1.98751">
        <ele>141.1</ele>
        <time>2025-06-19T08:23:05Z</time>
      </trkpt>
      <trkpt lat="48.69025" lon="1.98752">
        <ele>140.7</ele>
        <time>2025-06-19T08:23:13Z</time>
      </trkpt>
      <trkpt lat="48.69033" lon="1.98744">
        <ele>139.4</ele>
        <time>2025-06-19T08:23:23Z</time>
      </trkpt>
      <trkpt lat="48.69042" lon="1.98747">
        <ele>141.2</ele>
        <time>2025-06-19T08:23:31Z</time>
      </trkpt>
      <trkpt lat="48.69051" lon="1.98746">
        <ele>142.4</ele>
        <time>2025-06-19T08:23:39Z</time>
      </trkpt>
      <trkpt lat="48.69061" lon="1.98746">
        <ele>144</ele>
        <time>2025-06-19T08:23:48Z</time>
      </trkpt>
      <trkpt lat="48.6907" lon="1.98745">
        <ele>145.5</ele>
        <time>2025-06-19T08:23:57Z</time>
      </trkpt>
      <trkpt lat="48.69079" lon="1.9875">
        <ele>148.3</ele>
        <time>2025-06-19T08:24:06Z</time>
      </trkpt>
      <trkpt lat="48.69083" lon="1.98764">
        <ele>152.3</ele>
        <time>2025-06-19T08:24:15Z</time>
      </trkpt>
      <trkpt lat="48.69075" lon="1.98772">
        <ele>153.3</ele>
        <time>2025-06-19T08:28:34Z</time>
      </trkpt>
      <trkpt lat="48.69067" lon="1.98781">
        <ele>154.3</ele>
        <time>2025-06-19T08:28:47Z</time>
      </trkpt>
      <trkpt lat="48.69061" lon="1.9879">
        <ele>155.5</ele>
        <time>2025-06-19T08:28:56Z</time>
      </trkpt>
      <trkpt lat="48.69054" lon="1.98799">
        <ele>156.5</ele>
        <time>2025-06-19T08:29:06Z</time>
      </trkpt>
      <trkpt lat="48.69051" lon="1.98813">
        <ele>159.1</ele>
        <time>2025-06-19T08:29:18Z</time>
      </trkpt>
      <trkpt lat="48.69046" lon="1.98825">
        <ele>161.5</ele>
        <time>2025-06-19T08:29:29Z</time>
      </trkpt>
      <trkpt lat="48.69043" lon="1.98839">
        <ele>163.8</ele>
        <time>2025-06-19T08:29:42Z</time>
      </trkpt>
      <trkpt lat="48.69037" lon="1.9885">
        <ele>164.9</ele>
        <time>2025-06-19T08:30:37Z</time>
      </trkpt>
      <trkpt lat="48.69038" lon="1.98865">
        <ele>166.7</ele>
        <time>2025-06-19T08:30:44Z</time>
      </trkpt>
      <trkpt lat="48.69038" lon="1.9888">
        <ele>168.2</ele>
        <time>2025-06-19T08:30:51Z</time>
      </trkpt>
      <trkpt lat="48.6904" lon="1.98894">
        <ele>169.2</ele>
        <time>2025-06-19T08:30:58Z</time>
      </trkpt>
      <trkpt lat="48.69043" lon="1.98908">
        <ele>169.7</ele>
        <time>2025-06-19T08:31:06Z</time>
      </trkpt>
      <trkpt lat="48.69041" lon="1.98922">
        <ele>170.1</ele>
        <time>2025-06-19T08:31:13Z</time>
      </trkpt>
      <trkpt lat="48.69037" lon="1.98935">
        <ele>170.4</ele>
        <time>2025-06-19T08:31:20Z</time>
      </trkpt>
      <trkpt lat="48.69035" lon="1.9895">
        <ele>170.8</ele>
        <time>2025-06-19T08:31:27Z</time>
      </trkpt>
      <trkpt lat="48.69031" lon="1.98963">
        <ele>170.9</ele>
        <time>2025-06-19T08:31:34Z</time>
      </trkpt>
      <trkpt lat="48.69027" lon="1.98976">
        <ele>171</ele>
        <time>2025-06-19T08:31:41Z</time>
      </trkpt>
      <trkpt lat="48.69027" lon="1.98991">
        <ele>171</ele>
        <time>2025-06-19T08:31:48Z</time>
      </trkpt>
      <trkpt lat="48.69025" lon="1.99006">
        <ele>170.9</ele>
        <time>2025-06-19T08:31:55Z</time>
      </trkpt>
      <trkpt lat="48.69022" lon="1.99019">
        <ele>170.7</ele>
        <time>2025-06-19T08:32:02Z</time>
      </trkpt>
      <trkpt lat="48.69017" lon="1.99032">
        <ele>170.7</ele>
        <time>2025-06-19T08:32:10Z</time>
      </trkpt>
      <trkpt lat="48.69015" lon="1.99047">
        <ele>170.6</ele>
        <time>2025-06-19T08:32:18Z</time>
      </trkpt>
      <trkpt lat="48.69012" lon="1.99061">
        <ele>170.6</ele>
        <time>2025-06-19T08:32:27Z</time>
      </trkpt>
      <trkpt lat="48.69007" lon="1.99073">
        <ele>170.7</ele>
        <time>2025-06-19T08:32:34Z</time>
      </trkpt>
      <trkpt lat="48.69003" lon="1.99086">
        <ele>170.9</ele>
        <time>2025-06-19T08:32:41Z</time>
      </trkpt>
      <trkpt lat="48.69005" lon="1.99101">
        <ele>170.8</ele>
        <time>2025-06-19T08:32:52Z</time>
      </trkpt>
      <trkpt lat="48.69002" lon="1.99114">
        <ele>170.9</ele>
        <time>2025-06-19T08:33:01Z</time>
      </trkpt>
      <trkpt lat="48.68995" lon="1.99126">
        <ele>171.2</ele>
        <time>2025-06-19T08:33:09Z</time>
      </trkpt>
      <trkpt lat="48.68989" lon="1.99135">
        <ele>171.4</ele>
        <time>2025-06-19T08:33:16Z</time>
      </trkpt>
      <trkpt lat="48.68985" lon="1.99149">
        <ele>171.6</ele>
        <time>2025-06-19T08:33:23Z</time>
      </trkpt>
      <trkpt lat="48.68975" lon="1.99153">
        <ele>171.9</ele>
        <time>2025-06-19T08:33:30Z</time>
      </trkpt>
      <trkpt lat="48.68971" lon="1.99166">
        <ele>172</ele>
        <time>2025-06-19T08:33:37Z</time>
      </trkpt>
      <trkpt lat="48.68962" lon="1.99174">
        <ele>172.3</ele>
        <time>2025-06-19T08:33:44Z</time>
      </trkpt>
      <trkpt lat="48.68956" lon="1.99185">
        <ele>172.2</ele>
        <time>2025-06-19T08:33:55Z</time>
      </trkpt>
      <trkpt lat="48.68948" lon="1.99192">
        <ele>172.1</ele>
        <time>2025-06-19T08:34:07Z</time>
      </trkpt>
      <trkpt lat="48.68942" lon="1.99203">
        <ele>172.1</ele>
        <time>2025-06-19T08:34:15Z</time>
      </trkpt>
      <trkpt lat="48.68935" lon="1.99214">
        <ele>172.3</ele>
        <time>2025-06-19T08:34:23Z</time>
      </trkpt>
      <trkpt lat="48.6893" lon="1.99226">
        <ele>172.5</ele>
        <time>2025-06-19T08:34:31Z</time>
      </trkpt>
      <trkpt lat="48.68923" lon="1.99238">
        <ele>172.3</ele>
        <time>2025-06-19T08:34:38Z</time>
      </trkpt>
      <trkpt lat="48.68917" lon="1.99248">
        <ele>172.1</ele>
        <time>2025-06-19T08:34:45Z</time>
      </trkpt>
      <trkpt lat="48.68913" lon="1.99261">
        <ele>172.1</ele>
        <time>2025-06-19T08:34:52Z</time>
      </trkpt>
      <trkpt lat="48.68907" lon="1.99274">
        <ele>172.3</ele>
        <time>2025-06-19T08:34:59Z</time>
      </trkpt>
      <trkpt lat="48.68902" lon="1.99286">
        <ele>172.5</ele>
        <time>2025-06-19T08:35:06Z</time>
      </trkpt>
      <trkpt lat="48.68897" lon="1.99299">
        <ele>172.7</ele>
        <time>2025-06-19T08:35:14Z</time>
      </trkpt>
      <trkpt lat="48.68891" lon="1.99309">
        <ele>172.9</ele>
        <time>2025-06-19T08:35:21Z</time>
      </trkpt>
      <trkpt lat="48.68882" lon="1.99312">
        <ele>173</ele>
        <time>2025-06-19T08:35:33Z</time>
      </trkpt>
      <trkpt lat="48.68872" lon="1.99309">
        <ele>173</ele>
        <time>2025-06-19T08:35:41Z</time>
      </trkpt>
      <trkpt lat="48.68864" lon="1.99303">
        <ele>173</ele>
        <time>2025-06-19T08:35:48Z</time>
      </trkpt>
      <trkpt lat="48.68855" lon="1.99299">
        <ele>173.2</ele>
        <time>2025-06-19T08:35:55Z</time>
      </trkpt>
      <trkpt lat="48.68846" lon="1.99294">
        <ele>173.5</ele>
        <time>2025-06-19T08:36:02Z</time>
      </trkpt>
      <trkpt lat="48.68836" lon="1.99291">
        <ele>173.9</ele>
        <time>2025-06-19T08:36:09Z</time>
      </trkpt>
      <trkpt lat="48.68827" lon="1.99286">
        <ele>174</ele>
        <time>2025-06-19T08:36:16Z</time>
      </trkpt>
      <trkpt lat="48.68819" lon="1.99282">
        <ele>174</ele>
        <time>2025-06-19T08:36:30Z</time>
      </trkpt>
      <trkpt lat="48.6881" lon="1.99279">
        <ele>174</ele>
        <time>2025-06-19T08:36:39Z</time>
      </trkpt>
      <trkpt lat="48.688" lon="1.99275">
        <ele>174</ele>
        <time>2025-06-19T08:36:47Z</time>
      </trkpt>
      <trkpt lat="48.68791" lon="1.99271">
        <ele>174</ele>
        <time>2025-06-19T08:36:54Z</time>
      </trkpt>
      <trkpt lat="48.68782" lon="1.99269">
        <ele>174</ele>
        <time>2025-06-19T08:37:01Z</time>
      </trkpt>
      <trkpt lat="48.68772" lon="1.99266">
        <ele>174.2</ele>
        <time>2025-06-19T08:37:08Z</time>
      </trkpt>
      <trkpt lat="48.68763" lon="1.99263">
        <ele>174.5</ele>
        <time>2025-06-19T08:37:15Z</time>
      </trkpt>
      <trkpt lat="48.68754" lon="1.9926">
        <ele>174.8</ele>
        <time>2025-06-19T08:37:22Z</time>
      </trkpt>
      <trkpt lat="48.68745" lon="1.99256">
        <ele>175</ele>
        <time>2025-06-19T08:37:29Z</time>
      </trkpt>
      <trkpt lat="48.68735" lon="1.99251">
        <ele>175</ele>
        <time>2025-06-19T08:37:37Z</time>
      </trkpt>
      <trkpt lat="48.68726" lon="1.99247">
        <ele>175</ele>
        <time>2025-06-19T08:37:44Z</time>
      </trkpt>
      <trkpt lat="48.68717" lon="1.99242">
        <ele>175</ele>
        <time>2025-06-19T08:37:51Z</time>
      </trkpt>
      <trkpt lat="48.68708" lon="1.99237">
        <ele>175</ele>
        <time>2025-06-19T08:37:58Z</time>
      </trkpt>
      <trkpt lat="48.68699" lon="1.99233">
        <ele>175</ele>
        <time>2025-06-19T08:38:06Z</time>
      </trkpt>
      <trkpt lat="48.68689" lon="1.99229">
        <ele>175.2</ele>
        <time>2025-06-19T08:38:13Z</time>
      </trkpt>
      <trkpt lat="48.6868" lon="1.99225">
        <ele>175.5</ele>
        <time>2025-06-19T08:38:20Z</time>
      </trkpt>
      <trkpt lat="48.68672" lon="1.9922">
        <ele>175.7</ele>
        <time>2025-06-19T08:38:27Z</time>
      </trkpt>
      <trkpt lat="48.68664" lon="1.99214">
        <ele>175.6</ele>
        <time>2025-06-19T08:38:34Z</time>
      </trkpt>
      <trkpt lat="48.68654" lon="1.9921">
        <ele>175.3</ele>
        <time>2025-06-19T08:38:41Z</time>
      </trkpt>
      <trkpt lat="48.68646" lon="1.99205">
        <ele>175.1</ele>
        <time>2025-06-19T08:38:48Z</time>
      </trkpt>
      <trkpt lat="48.68636" lon="1.99202">
        <ele>175</ele>
        <time>2025-06-19T08:38:55Z</time>
      </trkpt>
      <trkpt lat="48.68627" lon="1.99199">
        <ele>175</ele>
        <time>2025-06-19T08:39:02Z</time>
      </trkpt>
      <trkpt lat="48.68618" lon="1.99194">
        <ele>175</ele>
        <time>2025-06-19T08:39:09Z</time>
      </trkpt>
      <trkpt lat="48.68609" lon="1.99189">
        <ele>175</ele>
        <time>2025-06-19T08:39:16Z</time>
      </trkpt>
      <trkpt lat="48.68599" lon="1.99186">
        <ele>175</ele>
        <time>2025-06-19T08:39:23Z</time>
      </trkpt>
      <trkpt lat="48.68589" lon="1.99184">
        <ele>175</ele>
        <time>2025-06-19T08:39:30Z</time>
      </trkpt>
      <trkpt lat="48.68579" lon="1.9918">
        <ele>175</ele>
        <time>2025-06-19T08:39:38Z</time>
      </trkpt>
      <trkpt lat="48.6857" lon="1.99179">
        <ele>175</ele>
        <time>2025-06-19T08:39:45Z</time>
      </trkpt>
      <trkpt lat="48.6856" lon="1.99177">
        <ele>175</ele>
        <time>2025-06-19T08:39:54Z</time>
      </trkpt>
      <trkpt lat="48.68553" lon="1.99168">
        <ele>174.9</ele>
        <time>2025-06-19T08:40:01Z</time>
      </trkpt>
      <trkpt lat="48.68545" lon="1.99158">
        <ele>174.6</ele>
        <time>2025-06-19T08:40:09Z</time>
      </trkpt>
      <trkpt lat="48.68537" lon="1.9915">
        <ele>174.3</ele>
        <time>2025-06-19T08:40:17Z</time>
      </trkpt>
      <trkpt lat="48.68529" lon="1.99144">
        <ele>174</ele>
        <time>2025-06-19T08:40:24Z</time>
      </trkpt>
      <trkpt lat="48.68519" lon="1.99139">
        <ele>174</ele>
        <time>2025-06-19T08:40:36Z</time>
      </trkpt>
      <trkpt lat="48.68511" lon="1.99132">
        <ele>174</ele>
        <time>2025-06-19T08:40:44Z</time>
      </trkpt>
      <trkpt lat="48.68508" lon="1.99119">
        <ele>174</ele>
        <time>2025-06-19T08:40:51Z</time>
      </trkpt>
      <trkpt lat="48.68507" lon="1.99105">
        <ele>173.8</ele>
        <time>2025-06-19T08:40:59Z</time>
      </trkpt>
      <trkpt lat="48.68506" lon="1.99091">
        <ele>173.4</ele>
        <time>2025-06-19T08:41:06Z</time>
      </trkpt>
      <trkpt lat="48.68508" lon="1.99077">
        <ele>173.2</ele>
        <time>2025-06-19T08:41:15Z</time>
      </trkpt>
      <trkpt lat="48.68511" lon="1.99064">
        <ele>173.1</ele>
        <time>2025-06-19T08:41:22Z</time>
      </trkpt>
      <trkpt lat="48.68514" lon="1.99051">
        <ele>172.8</ele>
        <time>2025-06-19T08:41:29Z</time>
      </trkpt>
      <trkpt lat="48.68519" lon="1.99038">
        <ele>172.4</ele>
        <time>2025-06-19T08:41:36Z</time>
      </trkpt>
      <trkpt lat="48.68522" lon="1.99024">
        <ele>172</ele>
        <time>2025-06-19T08:41:43Z</time>
      </trkpt>
      <trkpt lat="48.68527" lon="1.99011">
        <ele>172</ele>
        <time>2025-06-19T08:41:50Z</time>
      </trkpt>
      <trkpt lat="48.68529" lon="1.98997">
        <ele>172</ele>
        <time>2025-06-19T08:41:56Z</time>
      </trkpt>
      <trkpt lat="48.68534" lon="1.98984">
        <ele>171.6</ele>
        <time>2025-06-19T08:42:03Z</time>
      </trkpt>
      <trkpt lat="48.68537" lon="1.98971">
        <ele>171.3</ele>
        <time>2025-06-19T08:42:10Z</time>
      </trkpt>
      <trkpt lat="48.68541" lon="1.98957">
        <ele>171.5</ele>
        <time>2025-06-19T08:42:17Z</time>
      </trkpt>
      <trkpt lat="48.68543" lon="1.98941">
        <ele>171.4</ele>
        <time>2025-06-19T08:42:24Z</time>
      </trkpt>
      <trkpt lat="48.68544" lon="1.98926">
        <ele>170.9</ele>
        <time>2025-06-19T08:42:31Z</time>
      </trkpt>
      <trkpt lat="48.68544" lon="1.98911">
        <ele>170.5</ele>
        <time>2025-06-19T08:42:38Z</time>
      </trkpt>
      <trkpt lat="48.68545" lon="1.98896">
        <ele>170.2</ele>
        <time>2025-06-19T08:42:45Z</time>
      </trkpt>
      <trkpt lat="48.68545" lon="1.98882">
        <ele>169.7</ele>
        <time>2025-06-19T08:42:52Z</time>
      </trkpt>
      <trkpt lat="48.68545" lon="1.98867">
        <ele>169.2</ele>
        <time>2025-06-19T08:42:59Z</time>
      </trkpt>
      <trkpt lat="48.68544" lon="1.98853">
        <ele>168.8</ele>
        <time>2025-06-19T08:43:06Z</time>
      </trkpt>
      <trkpt lat="48.68542" lon="1.9884">
        <ele>168.6</ele>
        <time>2025-06-19T08:43:17Z</time>
      </trkpt>
      <trkpt lat="48.68537" lon="1.98827">
        <ele>168.4</ele>
        <time>2025-06-19T08:43:25Z</time>
      </trkpt>
      <trkpt lat="48.68531" lon="1.98816">
        <ele>168.2</ele>
        <time>2025-06-19T08:43:32Z</time>
      </trkpt>
      <trkpt lat="48.68524" lon="1.98804">
        <ele>168.2</ele>
        <time>2025-06-19T08:43:39Z</time>
      </trkpt>
      <trkpt lat="48.68518" lon="1.98793">
        <ele>168.4</ele>
        <time>2025-06-19T08:43:46Z</time>
      </trkpt>
      <trkpt lat="48.68509" lon="1.98786">
        <ele>169.2</ele>
        <time>2025-06-19T08:43:53Z</time>
      </trkpt>
      <trkpt lat="48.685" lon="1.98778">
        <ele>170</ele>
        <time>2025-06-19T08:44:00Z</time>
      </trkpt>
      <trkpt lat="48.68491" lon="1.98771">
        <ele>170.3</ele>
        <time>2025-06-19T08:44:07Z</time>
      </trkpt>
      <trkpt lat="48.68483" lon="1.98764">
        <ele>170.6</ele>
        <time>2025-06-19T08:44:14Z</time>
      </trkpt>
      <trkpt lat="48.68474" lon="1.9876">
        <ele>171</ele>
        <time>2025-06-19T08:44:21Z</time>
      </trkpt>
      <trkpt lat="48.68465" lon="1.98753">
        <ele>171.3</ele>
        <time>2025-06-19T08:44:28Z</time>
      </trkpt>
      <trkpt lat="48.68455" lon="1.98749">
        <ele>171.6</ele>
        <time>2025-06-19T08:44:35Z</time>
      </trkpt>
      <trkpt lat="48.68446" lon="1.98744">
        <ele>171.9</ele>
        <time>2025-06-19T08:44:42Z</time>
      </trkpt>
      <trkpt lat="48.68437" lon="1.98739">
        <ele>172</ele>
        <time>2025-06-19T08:44:49Z</time>
      </trkpt>
      <trkpt lat="48.68429" lon="1.98732">
        <ele>172</ele>
        <time>2025-06-19T08:44:56Z</time>
      </trkpt>
      <trkpt lat="48.6842" lon="1.98726">
        <ele>172</ele>
        <time>2025-06-19T08:45:03Z</time>
      </trkpt>
      <trkpt lat="48.6841" lon="1.98723">
        <ele>172</ele>
        <time>2025-06-19T08:45:10Z</time>
      </trkpt>
      <trkpt lat="48.68401" lon="1.98716">
        <ele>172.2</ele>
        <time>2025-06-19T08:45:17Z</time>
      </trkpt>
      <trkpt lat="48.68391" lon="1.98711">
        <ele>172.4</ele>
        <time>2025-06-19T08:45:24Z</time>
      </trkpt>
      <trkpt lat="48.68382" lon="1.98704">
        <ele>172.7</ele>
        <time>2025-06-19T08:45:31Z</time>
      </trkpt>
      <trkpt lat="48.68373" lon="1.98698">
        <ele>173</ele>
        <time>2025-06-19T08:45:38Z</time>
      </trkpt>
      <trkpt lat="48.68363" lon="1.98692">
        <ele>173</ele>
        <time>2025-06-19T08:45:45Z</time>
      </trkpt>
      <trkpt lat="48.68362" lon="1.98677">
        <ele>173</ele>
        <time>2025-06-19T08:45:53Z</time>
      </trkpt>
      <trkpt lat="48.68352" lon="1.98676">
        <ele>173.2</ele>
        <time>2025-06-19T08:45:59Z</time>
      </trkpt>
      <trkpt lat="48.68342" lon="1.98675">
        <ele>173.5</ele>
        <time>2025-06-19T08:46:05Z</time>
      </trkpt>
      <trkpt lat="48.68333" lon="1.98672">
        <ele>173.8</ele>
        <time>2025-06-19T08:46:12Z</time>
      </trkpt>
      <trkpt lat="48.68324" lon="1.98669">
        <ele>173.9</ele>
        <time>2025-06-19T08:46:19Z</time>
      </trkpt>
      <trkpt lat="48.68315" lon="1.98664">
        <ele>174</ele>
        <time>2025-06-19T08:46:26Z</time>
      </trkpt>
      <trkpt lat="48.68307" lon="1.98658">
        <ele>174</ele>
        <time>2025-06-19T08:46:33Z</time>
      </trkpt>
      <trkpt lat="48.68298" lon="1.98653">
        <ele>173.7</ele>
        <time>2025-06-19T08:46:40Z</time>
      </trkpt>
      <trkpt lat="48.68289" lon="1.98649">
        <ele>173.4</ele>
        <time>2025-06-19T08:46:47Z</time>
      </trkpt>
      <trkpt lat="48.68278" lon="1.98648">
        <ele>173</ele>
        <time>2025-06-19T08:46:54Z</time>
      </trkpt>
      <trkpt lat="48.68268" lon="1.98647">
        <ele>173</ele>
        <time>2025-06-19T08:47:02Z</time>
      </trkpt>
      <trkpt lat="48.68258" lon="1.98646">
        <ele>173</ele>
        <time>2025-06-19T08:47:09Z</time>
      </trkpt>
      <trkpt lat="48.68248" lon="1.98647">
        <ele>173</ele>
        <time>2025-06-19T08:47:16Z</time>
      </trkpt>
      <trkpt lat="48.68238" lon="1.98649">
        <ele>173</ele>
        <time>2025-06-19T08:47:23Z</time>
      </trkpt>
      <trkpt lat="48.68228" lon="1.98651">
        <ele>173</ele>
        <time>2025-06-19T08:47:30Z</time>
      </trkpt>
      <trkpt lat="48.68219" lon="1.98652">
        <ele>173</ele>
        <time>2025-06-19T08:47:37Z</time>
      </trkpt>
      <trkpt lat="48.68208" lon="1.98653">
        <ele>173</ele>
        <time>2025-06-19T08:47:44Z</time>
      </trkpt>
      <trkpt lat="48.68199" lon="1.98655">
        <ele>173</ele>
        <time>2025-06-19T08:47:51Z</time>
      </trkpt>
      <trkpt lat="48.68189" lon="1.98659">
        <ele>173.1</ele>
        <time>2025-06-19T08:47:58Z</time>
      </trkpt>
      <trkpt lat="48.6818" lon="1.98661">
        <ele>173.4</ele>
        <time>2025-06-19T08:48:04Z</time>
      </trkpt>
      <trkpt lat="48.68171" lon="1.98661">
        <ele>173.7</ele>
        <time>2025-06-19T08:48:11Z</time>
      </trkpt>
      <trkpt lat="48.68161" lon="1.98662">
        <ele>173.9</ele>
        <time>2025-06-19T08:48:18Z</time>
      </trkpt>
      <trkpt lat="48.68151" lon="1.98662">
        <ele>173.9</ele>
        <time>2025-06-19T08:48:25Z</time>
      </trkpt>
      <trkpt lat="48.68141" lon="1.98662">
        <ele>174</ele>
        <time>2025-06-19T08:48:32Z</time>
      </trkpt>
      <trkpt lat="48.68131" lon="1.98661">
        <ele>174</ele>
        <time>2025-06-19T08:48:39Z</time>
      </trkpt>
      <trkpt lat="48.68121" lon="1.98659">
        <ele>174</ele>
        <time>2025-06-19T08:48:46Z</time>
      </trkpt>
      <trkpt lat="48.6811" lon="1.98659">
        <ele>174</ele>
        <time>2025-06-19T08:48:53Z</time>
      </trkpt>
      <trkpt lat="48.681" lon="1.98658">
        <ele>174</ele>
        <time>2025-06-19T08:49:00Z</time>
      </trkpt>
      <trkpt lat="48.6809" lon="1.98657">
        <ele>174</ele>
        <time>2025-06-19T08:49:07Z</time>
      </trkpt>
      <trkpt lat="48.6808" lon="1.98655">
        <ele>174</ele>
        <time>2025-06-19T08:49:14Z</time>
      </trkpt>
      <trkpt lat="48.6807" lon="1.98652">
        <ele>174</ele>
        <time>2025-06-19T08:49:21Z</time>
      </trkpt>
      <trkpt lat="48.6806" lon="1.98652">
        <ele>174</ele>
        <time>2025-06-19T08:49:28Z</time>
      </trkpt>
      <trkpt lat="48.68051" lon="1.98646">
        <ele>174</ele>
        <time>2025-06-19T08:49:35Z</time>
      </trkpt>
      <trkpt lat="48.68042" lon="1.98643">
        <ele>174</ele>
        <time>2025-06-19T08:49:42Z</time>
      </trkpt>
      <trkpt lat="48.68031" lon="1.98641">
        <ele>174</ele>
        <time>2025-06-19T08:49:49Z</time>
      </trkpt>
      <trkpt lat="48.68023" lon="1.98637">
        <ele>174</ele>
        <time>2025-06-19T08:49:55Z</time>
      </trkpt>
      <trkpt lat="48.68013" lon="1.98633">
        <ele>174.1</ele>
        <time>2025-06-19T08:50:02Z</time>
      </trkpt>
      <trkpt lat="48.68004" lon="1.98629">
        <ele>174.3</ele>
        <time>2025-06-19T08:50:09Z</time>
      </trkpt>
      <trkpt lat="48.67995" lon="1.98624">
        <ele>174.5</ele>
        <time>2025-06-19T08:50:15Z</time>
      </trkpt>
      <trkpt lat="48.67985" lon="1.98621">
        <ele>174.6</ele>
        <time>2025-06-19T08:50:24Z</time>
      </trkpt>
      <trkpt lat="48.67976" lon="1.98618">
        <ele>174.7</ele>
        <time>2025-06-19T08:50:34Z</time>
      </trkpt>
      <trkpt lat="48.67967" lon="1.98615">
        <ele>174.7</ele>
        <time>2025-06-19T08:50:42Z</time>
      </trkpt>
      <trkpt lat="48.67958" lon="1.98611">
        <ele>174.5</ele>
        <time>2025-06-19T08:50:50Z</time>
      </trkpt>
      <trkpt lat="48.6796" lon="1.98598">
        <ele>174.1</ele>
        <time>2025-06-19T08:54:54Z</time>
      </trkpt>
      <trkpt lat="48.6796" lon="1.98582">
        <ele>173.6</ele>
        <time>2025-06-19T08:55:04Z</time>
      </trkpt>
      <trkpt lat="48.67955" lon="1.98569">
        <ele>173.4</ele>
        <time>2025-06-19T08:55:11Z</time>
      </trkpt>
      <trkpt lat="48.67946" lon="1.98564">
        <ele>173.1</ele>
        <time>2025-06-19T08:55:19Z</time>
      </trkpt>
      <trkpt lat="48.67939" lon="1.98555">
        <ele>172.4</ele>
        <time>2025-06-19T08:55:26Z</time>
      </trkpt>
      <trkpt lat="48.67933" lon="1.98543">
        <ele>171.1</ele>
        <time>2025-06-19T08:55:33Z</time>
      </trkpt>
      <trkpt lat="48.6793" lon="1.9853">
        <ele>170</ele>
        <time>2025-06-19T08:55:40Z</time>
      </trkpt>
      <trkpt lat="48.67933" lon="1.98516">
        <ele>169.2</ele>
        <time>2025-06-19T08:55:47Z</time>
      </trkpt>
      <trkpt lat="48.6794" lon="1.98508">
        <ele>169.8</ele>
        <time>2025-06-19T08:55:53Z</time>
      </trkpt>
      <trkpt lat="48.67949" lon="1.98498">
        <ele>170.1</ele>
        <time>2025-06-19T08:56:00Z</time>
      </trkpt>
      <trkpt lat="48.67957" lon="1.9849">
        <ele>169.8</ele>
        <time>2025-06-19T08:56:07Z</time>
      </trkpt>
      <trkpt lat="48.67965" lon="1.98482">
        <ele>169.8</ele>
        <time>2025-06-19T08:56:13Z</time>
      </trkpt>
      <trkpt lat="48.67971" lon="1.98473">
        <ele>170</ele>
        <time>2025-06-19T08:56:19Z</time>
      </trkpt>
      <trkpt lat="48.67979" lon="1.98464">
        <ele>169.4</ele>
        <time>2025-06-19T08:56:25Z</time>
      </trkpt>
      <trkpt lat="48.67987" lon="1.98457">
        <ele>169.3</ele>
        <time>2025-06-19T08:56:32Z</time>
      </trkpt>
      <trkpt lat="48.67994" lon="1.98446">
        <ele>168.6</ele>
        <time>2025-06-19T08:56:38Z</time>
      </trkpt>
      <trkpt lat="48.68001" lon="1.98435">
        <ele>167.8</ele>
        <time>2025-06-19T08:56:45Z</time>
      </trkpt>
      <trkpt lat="48.68011" lon="1.9843">
        <ele>168.4</ele>
        <time>2025-06-19T08:56:51Z</time>
      </trkpt>
      <trkpt lat="48.6802" lon="1.98423">
        <ele>169.2</ele>
        <time>2025-06-19T08:56:59Z</time>
      </trkpt>
      <trkpt lat="48.68029" lon="1.98423">
        <ele>170.6</ele>
        <time>2025-06-19T08:57:07Z</time>
      </trkpt>
      <trkpt lat="48.68036" lon="1.98412">
        <ele>170.4</ele>
        <time>2025-06-19T08:57:14Z</time>
      </trkpt>
      <trkpt lat="48.68043" lon="1.98401">
        <ele>170.3</ele>
        <time>2025-06-19T08:57:21Z</time>
      </trkpt>
      <trkpt lat="48.68051" lon="1.98394">
        <ele>170.7</ele>
        <time>2025-06-19T08:57:28Z</time>
      </trkpt>
      <trkpt lat="48.68057" lon="1.98383">
        <ele>170.5</ele>
        <time>2025-06-19T08:57:35Z</time>
      </trkpt>
      <trkpt lat="48.68061" lon="1.98371">
        <ele>169.2</ele>
        <time>2025-06-19T08:57:42Z</time>
      </trkpt>
      <trkpt lat="48.6807" lon="1.98364">
        <ele>168.9</ele>
        <time>2025-06-19T08:57:49Z</time>
      </trkpt>
      <trkpt lat="48.68078" lon="1.98371">
        <ele>169.9</ele>
        <time>2025-06-19T08:57:57Z</time>
      </trkpt>
      <trkpt lat="48.68088" lon="1.98374">
        <ele>170.1</ele>
        <time>2025-06-19T08:58:04Z</time>
      </trkpt>
      <trkpt lat="48.68097" lon="1.98373">
        <ele>169.3</ele>
        <time>2025-06-19T08:58:11Z</time>
      </trkpt>
      <trkpt lat="48.68103" lon="1.98383">
        <ele>169.9</ele>
        <time>2025-06-19T08:58:17Z</time>
      </trkpt>
      <trkpt lat="48.68111" lon="1.98391">
        <ele>170.1</ele>
        <time>2025-06-19T08:58:24Z</time>
      </trkpt>
      <trkpt lat="48.68119" lon="1.984">
        <ele>169</ele>
        <time>2025-06-19T08:58:32Z</time>
      </trkpt>
      <trkpt lat="48.68121" lon="1.98415">
        <ele>169.7</ele>
        <time>2025-06-19T08:58:48Z</time>
      </trkpt>
      <trkpt lat="48.6813" lon="1.98422">
        <ele>168.4</ele>
        <time>2025-06-19T08:59:29Z</time>
      </trkpt>
      <trkpt lat="48.68139" lon="1.98421">
        <ele>166.5</ele>
        <time>2025-06-19T08:59:37Z</time>
      </trkpt>
      <trkpt lat="48.68147" lon="1.98429">
        <ele>165.4</ele>
        <time>2025-06-19T08:59:45Z</time>
      </trkpt>
      <trkpt lat="48.68156" lon="1.98428">
        <ele>163.2</ele>
        <time>2025-06-19T08:59:52Z</time>
      </trkpt>
      <trkpt lat="48.68166" lon="1.9843">
        <ele>161.5</ele>
        <time>2025-06-19T09:00:02Z</time>
      </trkpt>
      <trkpt lat="48.68157" lon="1.98432">
        <ele>164</ele>
        <time>2025-06-19T09:00:13Z</time>
      </trkpt>
      <trkpt lat="48.68167" lon="1.98434">
        <ele>162.4</ele>
        <time>2025-06-19T09:00:22Z</time>
      </trkpt>
      <trkpt lat="48.68173" lon="1.98422">
        <ele>159.4</ele>
        <time>2025-06-19T09:00:26Z</time>
      </trkpt>
      <trkpt lat="48.68183" lon="1.98419">
        <ele>158.8</ele>
        <time>2025-06-19T09:00:30Z</time>
      </trkpt>
      <trkpt lat="48.68191" lon="1.98412">
        <ele>156.6</ele>
        <time>2025-06-19T09:00:37Z</time>
      </trkpt>
      <trkpt lat="48.68196" lon="1.984">
        <ele>153.2</ele>
        <time>2025-06-19T09:00:46Z</time>
      </trkpt>
      <trkpt lat="48.68205" lon="1.98395">
        <ele>152</ele>
        <time>2025-06-19T09:00:55Z</time>
      </trkpt>
      <trkpt lat="48.68213" lon="1.98386">
        <ele>150.2</ele>
        <time>2025-06-19T09:01:02Z</time>
      </trkpt>
      <trkpt lat="48.68223" lon="1.98381">
        <ele>149.4</ele>
        <time>2025-06-19T09:01:08Z</time>
      </trkpt>
      <trkpt lat="48.68232" lon="1.98372">
        <ele>146.4</ele>
        <time>2025-06-19T09:01:13Z</time>
      </trkpt>
      <trkpt lat="48.68234" lon="1.98357">
        <ele>144.1</ele>
        <time>2025-06-19T09:01:21Z</time>
      </trkpt>
      <trkpt lat="48.68236" lon="1.98343">
        <ele>143.1</ele>
        <time>2025-06-19T09:01:29Z</time>
      </trkpt>
      <trkpt lat="48.68236" lon="1.98329">
        <ele>142.2</ele>
        <time>2025-06-19T09:01:36Z</time>
      </trkpt>
      <trkpt lat="48.6824" lon="1.98316">
        <ele>140.9</ele>
        <time>2025-06-19T09:01:43Z</time>
      </trkpt>
      <trkpt lat="48.68249" lon="1.98313">
        <ele>140.6</ele>
        <time>2025-06-19T09:01:51Z</time>
      </trkpt>
      <trkpt lat="48.68254" lon="1.98301">
        <ele>138.6</ele>
        <time>2025-06-19T09:02:02Z</time>
      </trkpt>
      <trkpt lat="48.68264" lon="1.98297">
        <ele>136.8</ele>
        <time>2025-06-19T09:02:17Z</time>
      </trkpt>
      <trkpt lat="48.68269" lon="1.98286">
        <ele>135.2</ele>
        <time>2025-06-19T09:02:25Z</time>
      </trkpt>
      <trkpt lat="48.68278" lon="1.98281">
        <ele>134.1</ele>
        <time>2025-06-19T09:02:33Z</time>
      </trkpt>
      <trkpt lat="48.68286" lon="1.98276">
        <ele>132.3</ele>
        <time>2025-06-19T09:02:45Z</time>
      </trkpt>
      <trkpt lat="48.68294" lon="1.98266">
        <ele>130.3</ele>
        <time>2025-06-19T09:02:56Z</time>
      </trkpt>
      <trkpt lat="48.683" lon="1.98255">
        <ele>128.9</ele>
        <time>2025-06-19T09:03:03Z</time>
      </trkpt>
      <trkpt lat="48.68305" lon="1.98243">
        <ele>127.3</ele>
        <time>2025-06-19T09:03:10Z</time>
      </trkpt>
      <trkpt lat="48.68307" lon="1.98229">
        <ele>125.5</ele>
        <time>2025-06-19T09:03:21Z</time>
      </trkpt>
      <trkpt lat="48.68301" lon="1.98218">
        <ele>125</ele>
        <time>2025-06-19T09:04:25Z</time>
      </trkpt>
      <trkpt lat="48.68293" lon="1.98209">
        <ele>124.8</ele>
        <time>2025-06-19T09:04:35Z</time>
      </trkpt>
      <trkpt lat="48.68285" lon="1.98201">
        <ele>124.3</ele>
        <time>2025-06-19T09:04:43Z</time>
      </trkpt>
      <trkpt lat="48.68277" lon="1.98191">
        <ele>123.5</ele>
        <time>2025-06-19T09:04:51Z</time>
      </trkpt>
      <trkpt lat="48.68268" lon="1.98186">
        <ele>122.6</ele>
        <time>2025-06-19T09:05:00Z</time>
      </trkpt>
      <trkpt lat="48.68258" lon="1.98183">
        <ele>122.1</ele>
        <time>2025-06-19T09:05:11Z</time>
      </trkpt>
      <trkpt lat="48.68249" lon="1.98185">
        <ele>122.2</ele>
        <time>2025-06-19T09:05:19Z</time>
      </trkpt>
      <trkpt lat="48.6824" lon="1.98186">
        <ele>121.4</ele>
        <time>2025-06-19T09:05:27Z</time>
      </trkpt>
      <trkpt lat="48.68231" lon="1.98193">
        <ele>121.7</ele>
        <time>2025-06-19T09:05:35Z</time>
      </trkpt>
      <trkpt lat="48.68223" lon="1.982">
        <ele>122.1</ele>
        <time>2025-06-19T09:05:43Z</time>
      </trkpt>
      <trkpt lat="48.68214" lon="1.98207">
        <ele>122.1</ele>
        <time>2025-06-19T09:05:51Z</time>
      </trkpt>
      <trkpt lat="48.68204" lon="1.98212">
        <ele>121.6</ele>
        <time>2025-06-19T09:05:58Z</time>
      </trkpt>
      <trkpt lat="48.68194" lon="1.98214">
        <ele>120.4</ele>
        <time>2025-06-19T09:06:05Z</time>
      </trkpt>
      <trkpt lat="48.68184" lon="1.98211">
        <ele>121</ele>
        <time>2025-06-19T09:06:12Z</time>
      </trkpt>
      <trkpt lat="48.68174" lon="1.98207">
        <ele>121</ele>
        <time>2025-06-19T09:06:19Z</time>
      </trkpt>
      <trkpt lat="48.68165" lon="1.98201">
        <ele>120.7</ele>
        <time>2025-06-19T09:06:25Z</time>
      </trkpt>
      <trkpt lat="48.68158" lon="1.98191">
        <ele>120.7</ele>
        <time>2025-06-19T09:06:32Z</time>
      </trkpt>
      <trkpt lat="48.68151" lon="1.9818">
        <ele>120.2</ele>
        <time>2025-06-19T09:06:40Z</time>
      </trkpt>
      <trkpt lat="48.68145" lon="1.98169">
        <ele>119.5</ele>
        <time>2025-06-19T09:06:47Z</time>
      </trkpt>
      <trkpt lat="48.68138" lon="1.98159">
        <ele>118.6</ele>
        <time>2025-06-19T09:06:54Z</time>
      </trkpt>
      <trkpt lat="48.6813" lon="1.98152">
        <ele>118.3</ele>
        <time>2025-06-19T09:07:01Z</time>
      </trkpt>
      <trkpt lat="48.6812" lon="1.98153">
        <ele>119.6</ele>
        <time>2025-06-19T09:07:09Z</time>
      </trkpt>
      <trkpt lat="48.68115" lon="1.9814">
        <ele>117.1</ele>
        <time>2025-06-19T09:07:16Z</time>
      </trkpt>
      <trkpt lat="48.68105" lon="1.98139">
        <ele>117</ele>
        <time>2025-06-19T09:07:23Z</time>
      </trkpt>
      <trkpt lat="48.68095" lon="1.98138">
        <ele>116.8</ele>
        <time>2025-06-19T09:07:31Z</time>
      </trkpt>
      <trkpt lat="48.68087" lon="1.98143">
        <ele>118</ele>
        <time>2025-06-19T09:07:38Z</time>
      </trkpt>
      <trkpt lat="48.68078" lon="1.98147">
        <ele>118.8</ele>
        <time>2025-06-19T09:07:45Z</time>
      </trkpt>
      <trkpt lat="48.68069" lon="1.98153">
        <ele>119.6</ele>
        <time>2025-06-19T09:07:52Z</time>
      </trkpt>
      <trkpt lat="48.68061" lon="1.98161">
        <ele>120.4</ele>
        <time>2025-06-19T09:07:59Z</time>
      </trkpt>
      <trkpt lat="48.68053" lon="1.98168">
        <ele>121</ele>
        <time>2025-06-19T09:08:06Z</time>
      </trkpt>
      <trkpt lat="48.68045" lon="1.98174">
        <ele>121.4</ele>
        <time>2025-06-19T09:08:14Z</time>
      </trkpt>
      <trkpt lat="48.68037" lon="1.98181">
        <ele>121.8</ele>
        <time>2025-06-19T09:08:21Z</time>
      </trkpt>
      <trkpt lat="48.68029" lon="1.9819">
        <ele>122.4</ele>
        <time>2025-06-19T09:08:30Z</time>
      </trkpt>
      <trkpt lat="48.68021" lon="1.98198">
        <ele>123</ele>
        <time>2025-06-19T09:08:37Z</time>
      </trkpt>
      <trkpt lat="48.68014" lon="1.98208">
        <ele>124.2</ele>
        <time>2025-06-19T09:08:45Z</time>
      </trkpt>
      <trkpt lat="48.68006" lon="1.98217">
        <ele>124.9</ele>
        <time>2025-06-19T09:08:53Z</time>
      </trkpt>
      <trkpt lat="48.67997" lon="1.98224">
        <ele>125</ele>
        <time>2025-06-19T09:09:00Z</time>
      </trkpt>
      <trkpt lat="48.67988" lon="1.98225">
        <ele>124</ele>
        <time>2025-06-19T09:09:09Z</time>
      </trkpt>
      <trkpt lat="48.6798" lon="1.98233">
        <ele>124.3</ele>
        <time>2025-06-19T09:09:17Z</time>
      </trkpt>
      <trkpt lat="48.67972" lon="1.98243">
        <ele>124.2</ele>
        <time>2025-06-19T09:09:25Z</time>
      </trkpt>
      <trkpt lat="48.67964" lon="1.98251">
        <ele>125.2</ele>
        <time>2025-06-19T09:09:33Z</time>
      </trkpt>
      <trkpt lat="48.67957" lon="1.98259">
        <ele>126.3</ele>
        <time>2025-06-19T09:09:41Z</time>
      </trkpt>
      <trkpt lat="48.67947" lon="1.9826">
        <ele>126.1</ele>
        <time>2025-06-19T09:09:49Z</time>
      </trkpt>
      <trkpt lat="48.67939" lon="1.98252">
        <ele>125.5</ele>
        <time>2025-06-19T09:09:56Z</time>
      </trkpt>
      <trkpt lat="48.67931" lon="1.98242">
        <ele>125.7</ele>
        <time>2025-06-19T09:10:04Z</time>
      </trkpt>
      <trkpt lat="48.67926" lon="1.98231">
        <ele>125.9</ele>
        <time>2025-06-19T09:10:11Z</time>
      </trkpt>
      <trkpt lat="48.6792" lon="1.98219">
        <ele>126.6</ele>
        <time>2025-06-19T09:10:19Z</time>
      </trkpt>
      <trkpt lat="48.67914" lon="1.98208">
        <ele>127.9</ele>
        <time>2025-06-19T09:10:27Z</time>
      </trkpt>
      <trkpt lat="48.67916" lon="1.98194">
        <ele>128.1</ele>
        <time>2025-06-19T09:10:34Z</time>
      </trkpt>
      <trkpt lat="48.67919" lon="1.98179">
        <ele>128.7</ele>
        <time>2025-06-19T09:10:41Z</time>
      </trkpt>
      <trkpt lat="48.67923" lon="1.98165">
        <ele>129</ele>
        <time>2025-06-19T09:10:49Z</time>
      </trkpt>
      <trkpt lat="48.67926" lon="1.98151">
        <ele>128.9</ele>
        <time>2025-06-19T09:10:56Z</time>
      </trkpt>
      <trkpt lat="48.67928" lon="1.98138">
        <ele>129.1</ele>
        <time>2025-06-19T09:11:03Z</time>
      </trkpt>
      <trkpt lat="48.67929" lon="1.98122">
        <ele>129.6</ele>
        <time>2025-06-19T09:11:11Z</time>
      </trkpt>
      <trkpt lat="48.67931" lon="1.98108">
        <ele>130.1</ele>
        <time>2025-06-19T09:11:18Z</time>
      </trkpt>
      <trkpt lat="48.67933" lon="1.98094">
        <ele>130.3</ele>
        <time>2025-06-19T09:11:25Z</time>
      </trkpt>
      <trkpt lat="48.67934" lon="1.98079">
        <ele>130.7</ele>
        <time>2025-06-19T09:11:32Z</time>
      </trkpt>
      <trkpt lat="48.67937" lon="1.98064">
        <ele>131.3</ele>
        <time>2025-06-19T09:11:39Z</time>
      </trkpt>
      <trkpt lat="48.67939" lon="1.9805">
        <ele>131.7</ele>
        <time>2025-06-19T09:11:46Z</time>
      </trkpt>
      <trkpt lat="48.67943" lon="1.98035">
        <ele>131.9</ele>
        <time>2025-06-19T09:11:54Z</time>
      </trkpt>
      <trkpt lat="48.67945" lon="1.9802">
        <ele>132.2</ele>
        <time>2025-06-19T09:12:01Z</time>
      </trkpt>
      <trkpt lat="48.67949" lon="1.98008">
        <ele>132.4</ele>
        <time>2025-06-19T09:12:08Z</time>
      </trkpt>
      <trkpt lat="48.67954" lon="1.97997">
        <ele>132.4</ele>
        <time>2025-06-19T09:12:15Z</time>
      </trkpt>
      <trkpt lat="48.67961" lon="1.97986">
        <ele>132.3</ele>
        <time>2025-06-19T09:12:23Z</time>
      </trkpt>
      <trkpt lat="48.67968" lon="1.97976">
        <ele>132.2</ele>
        <time>2025-06-19T09:12:30Z</time>
      </trkpt>
      <trkpt lat="48.67975" lon="1.97965">
        <ele>132</ele>
        <time>2025-06-19T09:12:37Z</time>
      </trkpt>
      <trkpt lat="48.67981" lon="1.97954">
        <ele>131.7</ele>
        <time>2025-06-19T09:12:46Z</time>
      </trkpt>
      <trkpt lat="48.67985" lon="1.9794">
        <ele>131.8</ele>
        <time>2025-06-19T09:12:54Z</time>
      </trkpt>
      <trkpt lat="48.67989" lon="1.97927">
        <ele>131.8</ele>
        <time>2025-06-19T09:13:02Z</time>
      </trkpt>
      <trkpt lat="48.67991" lon="1.97913">
        <ele>132</ele>
        <time>2025-06-19T09:13:11Z</time>
      </trkpt>
      <trkpt lat="48.67994" lon="1.979">
        <ele>132.1</ele>
        <time>2025-06-19T09:13:19Z</time>
      </trkpt>
      <trkpt lat="48.67996" lon="1.97885">
        <ele>132.3</ele>
        <time>2025-06-19T09:13:27Z</time>
      </trkpt>
      <trkpt lat="48.67997" lon="1.97872">
        <ele>132.3</ele>
        <time>2025-06-19T09:13:34Z</time>
      </trkpt>
      <trkpt lat="48.67989" lon="1.97862">
        <ele>133.2</ele>
        <time>2025-06-19T09:15:24Z</time>
      </trkpt>
      <trkpt lat="48.67981" lon="1.97853">
        <ele>134.3</ele>
        <time>2025-06-19T09:15:35Z</time>
      </trkpt>
      <trkpt lat="48.67974" lon="1.97844">
        <ele>135.5</ele>
        <time>2025-06-19T09:15:45Z</time>
      </trkpt>
      <trkpt lat="48.67966" lon="1.97835">
        <ele>137.1</ele>
        <time>2025-06-19T09:15:54Z</time>
      </trkpt>
      <trkpt lat="48.67959" lon="1.97827">
        <ele>138.9</ele>
        <time>2025-06-19T09:16:02Z</time>
      </trkpt>
      <trkpt lat="48.67949" lon="1.97823">
        <ele>140.9</ele>
        <time>2025-06-19T09:16:12Z</time>
      </trkpt>
      <trkpt lat="48.6794" lon="1.97826">
        <ele>142.3</ele>
        <time>2025-06-19T09:16:22Z</time>
      </trkpt>
      <trkpt lat="48.67931" lon="1.9783">
        <ele>143.7</ele>
        <time>2025-06-19T09:16:33Z</time>
      </trkpt>
      <trkpt lat="48.67923" lon="1.97823">
        <ele>145.7</ele>
        <time>2025-06-19T09:16:44Z</time>
      </trkpt>
      <trkpt lat="48.67913" lon="1.9782">
        <ele>147.5</ele>
        <time>2025-06-19T09:16:57Z</time>
      </trkpt>
      <trkpt lat="48.67906" lon="1.9781">
        <ele>149.2</ele>
        <time>2025-06-19T09:17:08Z</time>
      </trkpt>
      <trkpt lat="48.67901" lon="1.97798">
        <ele>150.7</ele>
        <time>2025-06-19T09:17:21Z</time>
      </trkpt>
      <trkpt lat="48.67894" lon="1.97789">
        <ele>152.3</ele>
        <time>2025-06-19T09:17:32Z</time>
      </trkpt>
      <trkpt lat="48.67886" lon="1.9778">
        <ele>154.4</ele>
        <time>2025-06-19T09:17:43Z</time>
      </trkpt>
      <trkpt lat="48.67878" lon="1.97772">
        <ele>156.7</ele>
        <time>2025-06-19T09:17:52Z</time>
      </trkpt>
      <trkpt lat="48.6787" lon="1.97764">
        <ele>159</ele>
        <time>2025-06-19T09:18:01Z</time>
      </trkpt>
      <trkpt lat="48.67862" lon="1.97756">
        <ele>161.4</ele>
        <time>2025-06-19T09:18:11Z</time>
      </trkpt>
      <trkpt lat="48.67853" lon="1.97749">
        <ele>163.2</ele>
        <time>2025-06-19T09:18:21Z</time>
      </trkpt>
      <trkpt lat="48.67849" lon="1.97737">
        <ele>164.2</ele>
        <time>2025-06-19T09:20:56Z</time>
      </trkpt>
      <trkpt lat="48.67853" lon="1.97723">
        <ele>164.2</ele>
        <time>2025-06-19T09:21:03Z</time>
      </trkpt>
      <trkpt lat="48.67857" lon="1.9771">
        <ele>164.5</ele>
        <time>2025-06-19T09:21:11Z</time>
      </trkpt>
      <trkpt lat="48.6786" lon="1.97697">
        <ele>165</ele>
        <time>2025-06-19T09:21:18Z</time>
      </trkpt>
      <trkpt lat="48.67862" lon="1.97681">
        <ele>164.7</ele>
        <time>2025-06-19T09:21:25Z</time>
      </trkpt>
      <trkpt lat="48.67866" lon="1.97667">
        <ele>163.7</ele>
        <time>2025-06-19T09:21:32Z</time>
      </trkpt>
      <trkpt lat="48.6787" lon="1.97653">
        <ele>162.8</ele>
        <time>2025-06-19T09:21:39Z</time>
      </trkpt>
      <trkpt lat="48.67873" lon="1.97639">
        <ele>162.1</ele>
        <time>2025-06-19T09:21:46Z</time>
      </trkpt>
      <trkpt lat="48.67877" lon="1.97628">
        <ele>160.7</ele>
        <time>2025-06-19T09:21:52Z</time>
      </trkpt>
      <trkpt lat="48.67881" lon="1.97613">
        <ele>159.8</ele>
        <time>2025-06-19T09:21:59Z</time>
      </trkpt>
      <trkpt lat="48.6788" lon="1.97599">
        <ele>159.8</ele>
        <time>2025-06-19T09:22:06Z</time>
      </trkpt>
      <trkpt lat="48.67879" lon="1.97584">
        <ele>159.8</ele>
        <time>2025-06-19T09:22:14Z</time>
      </trkpt>
      <trkpt lat="48.67877" lon="1.9757">
        <ele>160.2</ele>
        <time>2025-06-19T09:22:21Z</time>
      </trkpt>
      <trkpt lat="48.67873" lon="1.97556">
        <ele>160.8</ele>
        <time>2025-06-19T09:22:29Z</time>
      </trkpt>
      <trkpt lat="48.67874" lon="1.97541">
        <ele>160.3</ele>
        <time>2025-06-19T09:22:37Z</time>
      </trkpt>
      <trkpt lat="48.67871" lon="1.97527">
        <ele>160.5</ele>
        <time>2025-06-19T09:22:45Z</time>
      </trkpt>
      <trkpt lat="48.67876" lon="1.97515">
        <ele>159.8</ele>
        <time>2025-06-19T09:22:52Z</time>
      </trkpt>
      <trkpt lat="48.67884" lon="1.97507">
        <ele>158.7</ele>
        <time>2025-06-19T09:23:10Z</time>
      </trkpt>
      <trkpt lat="48.67892" lon="1.97501">
        <ele>157</ele>
        <time>2025-06-19T09:23:16Z</time>
      </trkpt>
      <trkpt lat="48.67901" lon="1.97496">
        <ele>154.6</ele>
        <time>2025-06-19T09:23:23Z</time>
      </trkpt>
      <trkpt lat="48.67908" lon="1.97488">
        <ele>152.4</ele>
        <time>2025-06-19T09:23:30Z</time>
      </trkpt>
      <trkpt lat="48.67908" lon="1.97473">
        <ele>152.6</ele>
        <time>2025-06-19T09:23:40Z</time>
      </trkpt>
      <trkpt lat="48.67908" lon="1.97458">
        <ele>152.8</ele>
        <time>2025-06-19T09:23:53Z</time>
      </trkpt>
      <trkpt lat="48.67905" lon="1.97444">
        <ele>153.7</ele>
        <time>2025-06-19T09:24:00Z</time>
      </trkpt>
      <trkpt lat="48.67901" lon="1.97431">
        <ele>155</ele>
        <time>2025-06-19T09:24:07Z</time>
      </trkpt>
      <trkpt lat="48.67897" lon="1.97419">
        <ele>156.3</ele>
        <time>2025-06-19T09:24:14Z</time>
      </trkpt>
      <trkpt lat="48.67893" lon="1.97407">
        <ele>157.6</ele>
        <time>2025-06-19T09:24:21Z</time>
      </trkpt>
      <trkpt lat="48.67892" lon="1.97393">
        <ele>158</ele>
        <time>2025-06-19T09:24:29Z</time>
      </trkpt>
      <trkpt lat="48.67889" lon="1.97379">
        <ele>159</ele>
        <time>2025-06-19T09:24:36Z</time>
      </trkpt>
      <trkpt lat="48.67886" lon="1.97365">
        <ele>159.4</ele>
        <time>2025-06-19T09:24:43Z</time>
      </trkpt>
      <trkpt lat="48.67885" lon="1.9735">
        <ele>159.2</ele>
        <time>2025-06-19T09:24:50Z</time>
      </trkpt>
      <trkpt lat="48.67883" lon="1.97335">
        <ele>159</ele>
        <time>2025-06-19T09:24:57Z</time>
      </trkpt>
      <trkpt lat="48.67883" lon="1.9732">
        <ele>158.9</ele>
        <time>2025-06-19T09:25:04Z</time>
      </trkpt>
      <trkpt lat="48.67881" lon="1.97305">
        <ele>159.1</ele>
        <time>2025-06-19T09:25:11Z</time>
      </trkpt>
      <trkpt lat="48.67877" lon="1.97291">
        <ele>159.4</ele>
        <time>2025-06-19T09:25:18Z</time>
      </trkpt>
      <trkpt lat="48.67871" lon="1.97278">
        <ele>160.2</ele>
        <time>2025-06-19T09:25:25Z</time>
      </trkpt>
      <trkpt lat="48.67867" lon="1.97265">
        <ele>160.8</ele>
        <time>2025-06-19T09:25:33Z</time>
      </trkpt>
      <trkpt lat="48.6787" lon="1.9725">
        <ele>160.1</ele>
        <time>2025-06-19T09:25:41Z</time>
      </trkpt>
      <trkpt lat="48.67862" lon="1.97241">
        <ele>161.4</ele>
        <time>2025-06-19T09:25:49Z</time>
      </trkpt>
      <trkpt lat="48.67854" lon="1.97233">
        <ele>161.8</ele>
        <time>2025-06-19T09:25:58Z</time>
      </trkpt>
      <trkpt lat="48.67849" lon="1.97221">
        <ele>161.8</ele>
        <time>2025-06-19T09:26:05Z</time>
      </trkpt>
      <trkpt lat="48.67846" lon="1.97208">
        <ele>161.4</ele>
        <time>2025-06-19T09:26:12Z</time>
      </trkpt>
      <trkpt lat="48.6785" lon="1.97195">
        <ele>160.2</ele>
        <time>2025-06-19T09:26:19Z</time>
      </trkpt>
      <trkpt lat="48.67852" lon="1.9718">
        <ele>159.1</ele>
        <time>2025-06-19T09:26:27Z</time>
      </trkpt>
      <trkpt lat="48.67846" lon="1.97169">
        <ele>159.2</ele>
        <time>2025-06-19T09:26:37Z</time>
      </trkpt>
      <trkpt lat="48.67843" lon="1.97154">
        <ele>158.5</ele>
        <time>2025-06-19T09:26:45Z</time>
      </trkpt>
      <trkpt lat="48.67837" lon="1.97144">
        <ele>158.6</ele>
        <time>2025-06-19T09:26:51Z</time>
      </trkpt>
      <trkpt lat="48.67838" lon="1.9713">
        <ele>157</ele>
        <time>2025-06-19T09:26:59Z</time>
      </trkpt>
      <trkpt lat="48.67834" lon="1.97115">
        <ele>156.2</ele>
        <time>2025-06-19T09:27:08Z</time>
      </trkpt>
      <trkpt lat="48.67831" lon="1.97102">
        <ele>155.2</ele>
        <time>2025-06-19T09:27:15Z</time>
      </trkpt>
      <trkpt lat="48.67825" lon="1.97091">
        <ele>154.6</ele>
        <time>2025-06-19T09:27:22Z</time>
      </trkpt>
      <trkpt lat="48.67816" lon="1.97086">
        <ele>155.4</ele>
        <time>2025-06-19T09:27:36Z</time>
      </trkpt>
      <trkpt lat="48.67814" lon="1.97071">
        <ele>154.4</ele>
        <time>2025-06-19T09:27:46Z</time>
      </trkpt>
      <trkpt lat="48.67805" lon="1.97065">
        <ele>155.7</ele>
        <time>2025-06-19T09:27:54Z</time>
      </trkpt>
      <trkpt lat="48.67796" lon="1.97066">
        <ele>157.2</ele>
        <time>2025-06-19T09:28:06Z</time>
      </trkpt>
      <trkpt lat="48.67791" lon="1.97054">
        <ele>157.1</ele>
        <time>2025-06-19T09:28:15Z</time>
      </trkpt>
      <trkpt lat="48.67784" lon="1.97044">
        <ele>157.5</ele>
        <time>2025-06-19T09:29:03Z</time>
      </trkpt>
      <trkpt lat="48.67776" lon="1.97037">
        <ele>158.4</ele>
        <time>2025-06-19T09:29:25Z</time>
      </trkpt>
      <trkpt lat="48.67775" lon="1.97023">
        <ele>157.9</ele>
        <time>2025-06-19T09:29:36Z</time>
      </trkpt>
      <trkpt lat="48.67774" lon="1.97038">
        <ele>158.6</ele>
        <time>2025-06-19T09:30:00Z</time>
      </trkpt>
      <trkpt lat="48.67775" lon="1.97053">
        <ele>159.1</ele>
        <time>2025-06-19T09:30:15Z</time>
      </trkpt>
      <trkpt lat="48.67768" lon="1.97063">
        <ele>160.1</ele>
        <time>2025-06-19T09:30:22Z</time>
      </trkpt>
      <trkpt lat="48.6776" lon="1.97071">
        <ele>161</ele>
        <time>2025-06-19T09:30:35Z</time>
      </trkpt>
      <trkpt lat="48.67751" lon="1.97078">
        <ele>161.8</ele>
        <time>2025-06-19T09:30:48Z</time>
      </trkpt>
      <trkpt lat="48.67749" lon="1.97064">
        <ele>161.4</ele>
        <time>2025-06-19T09:30:57Z</time>
      </trkpt>
      <trkpt lat="48.67746" lon="1.97051">
        <ele>161.1</ele>
        <time>2025-06-19T09:31:07Z</time>
      </trkpt>
      <trkpt lat="48.67741" lon="1.97039">
        <ele>161.1</ele>
        <time>2025-06-19T09:31:18Z</time>
      </trkpt>
      <trkpt lat="48.67731" lon="1.97034">
        <ele>161.6</ele>
        <time>2025-06-19T09:31:29Z</time>
      </trkpt>
      <trkpt lat="48.67722" lon="1.97028">
        <ele>162</ele>
        <time>2025-06-19T09:31:38Z</time>
      </trkpt>
      <trkpt lat="48.67715" lon="1.9702">
        <ele>162.5</ele>
        <time>2025-06-19T09:31:49Z</time>
      </trkpt>
      <trkpt lat="48.67714" lon="1.97006">
        <ele>162.1</ele>
        <time>2025-06-19T09:31:56Z</time>
      </trkpt>
      <trkpt lat="48.67714" lon="1.96991">
        <ele>161.7</ele>
        <time>2025-06-19T09:32:03Z</time>
      </trkpt>
      <trkpt lat="48.67714" lon="1.96977">
        <ele>161.4</ele>
        <time>2025-06-19T09:32:10Z</time>
      </trkpt>
      <trkpt lat="48.67713" lon="1.96964">
        <ele>161</ele>
        <time>2025-06-19T09:32:17Z</time>
      </trkpt>
      <trkpt lat="48.67712" lon="1.96949">
        <ele>160.6</ele>
        <time>2025-06-19T09:32:25Z</time>
      </trkpt>
      <trkpt lat="48.67715" lon="1.96935">
        <ele>159.6</ele>
        <time>2025-06-19T09:32:33Z</time>
      </trkpt>
      <trkpt lat="48.6772" lon="1.96922">
        <ele>158.5</ele>
        <time>2025-06-19T09:32:39Z</time>
      </trkpt>
      <trkpt lat="48.67722" lon="1.96908">
        <ele>157.7</ele>
        <time>2025-06-19T09:32:47Z</time>
      </trkpt>
      <trkpt lat="48.67722" lon="1.96894">
        <ele>157.2</ele>
        <time>2025-06-19T09:32:55Z</time>
      </trkpt>
      <trkpt lat="48.67727" lon="1.9688">
        <ele>156</ele>
        <time>2025-06-19T09:33:03Z</time>
      </trkpt>
      <trkpt lat="48.67728" lon="1.96866">
        <ele>155.2</ele>
        <time>2025-06-19T09:33:11Z</time>
      </trkpt>
      <trkpt lat="48.67726" lon="1.96852">
        <ele>154.9</ele>
        <time>2025-06-19T09:33:18Z</time>
      </trkpt>
      <trkpt lat="48.67727" lon="1.96837">
        <ele>154</ele>
        <time>2025-06-19T09:33:28Z</time>
      </trkpt>
      <trkpt lat="48.67732" lon="1.96823">
        <ele>152.2</ele>
        <time>2025-06-19T09:33:37Z</time>
      </trkpt>
      <trkpt lat="48.67735" lon="1.96809">
        <ele>150.6</ele>
        <time>2025-06-19T09:33:46Z</time>
      </trkpt>
      <trkpt lat="48.67739" lon="1.96797">
        <ele>148.9</ele>
        <time>2025-06-19T09:33:53Z</time>
      </trkpt>
      <trkpt lat="48.67745" lon="1.96785">
        <ele>147.3</ele>
        <time>2025-06-19T09:34:01Z</time>
      </trkpt>
      <trkpt lat="48.67754" lon="1.96778">
        <ele>145.4</ele>
        <time>2025-06-19T09:34:09Z</time>
      </trkpt>
      <trkpt lat="48.67764" lon="1.96776">
        <ele>143.5</ele>
        <time>2025-06-19T09:34:16Z</time>
      </trkpt>
      <trkpt lat="48.67772" lon="1.96769">
        <ele>141.8</ele>
        <time>2025-06-19T09:34:23Z</time>
      </trkpt>
      <trkpt lat="48.67781" lon="1.96767">
        <ele>140</ele>
        <time>2025-06-19T09:34:37Z</time>
      </trkpt>
      <trkpt lat="48.6779" lon="1.96764">
        <ele>137.9</ele>
        <time>2025-06-19T09:34:58Z</time>
      </trkpt>
      <trkpt lat="48.67798" lon="1.96756">
        <ele>135.8</ele>
        <time>2025-06-19T09:35:09Z</time>
      </trkpt>
      <trkpt lat="48.67808" lon="1.96755">
        <ele>133.6</ele>
        <time>2025-06-19T09:35:19Z</time>
      </trkpt>
      <trkpt lat="48.67817" lon="1.96748">
        <ele>131.2</ele>
        <time>2025-06-19T09:35:41Z</time>
      </trkpt>
      <trkpt lat="48.67826" lon="1.96746">
        <ele>128.9</ele>
        <time>2025-06-19T09:35:49Z</time>
      </trkpt>
      <trkpt lat="48.67836" lon="1.96744">
        <ele>126.4</ele>
        <time>2025-06-19T09:35:58Z</time>
      </trkpt>
      <trkpt lat="48.67845" lon="1.96737">
        <ele>124.1</ele>
        <time>2025-06-19T09:36:07Z</time>
      </trkpt>
      <trkpt lat="48.67854" lon="1.96737">
        <ele>121.8</ele>
        <time>2025-06-19T09:36:15Z</time>
      </trkpt>
      <trkpt lat="48.67863" lon="1.96733">
        <ele>119.7</ele>
        <time>2025-06-19T09:36:23Z</time>
      </trkpt>
      <trkpt lat="48.67871" lon="1.96726">
        <ele>118.2</ele>
        <time>2025-06-19T09:36:37Z</time>
      </trkpt>
      <trkpt lat="48.6788" lon="1.96724">
        <ele>116.6</ele>
        <time>2025-06-19T09:36:48Z</time>
      </trkpt>
      <trkpt lat="48.67889" lon="1.96719">
        <ele>114.9</ele>
        <time>2025-06-19T09:37:00Z</time>
      </trkpt>
      <trkpt lat="48.67897" lon="1.96714">
        <ele>113.3</ele>
        <time>2025-06-19T09:37:14Z</time>
      </trkpt>
      <trkpt lat="48.67893" lon="1.96701">
        <ele>113.6</ele>
        <time>2025-06-19T09:37:24Z</time>
      </trkpt>
      <trkpt lat="48.67894" lon="1.96687">
        <ele>113.2</ele>
        <time>2025-06-19T09:37:33Z</time>
      </trkpt>
      <trkpt lat="48.67891" lon="1.96674">
        <ele>113.7</ele>
        <time>2025-06-19T09:37:47Z</time>
      </trkpt>
      <trkpt lat="48.67889" lon="1.9666">
        <ele>114.1</ele>
        <time>2025-06-19T09:37:55Z</time>
      </trkpt>
      <trkpt lat="48.67884" lon="1.96648">
        <ele>114.6</ele>
        <time>2025-06-19T09:38:02Z</time>
      </trkpt>
      <trkpt lat="48.67882" lon="1.96634">
        <ele>114.7</ele>
        <time>2025-06-19T09:38:12Z</time>
      </trkpt>
      <trkpt lat="48.6788" lon="1.96621">
        <ele>114.8</ele>
        <time>2025-06-19T09:38:22Z</time>
      </trkpt>
      <trkpt lat="48.67874" lon="1.9661">
        <ele>115.1</ele>
        <time>2025-06-19T09:38:31Z</time>
      </trkpt>
    </trkseg>
  </trk>
</gpx>